Time,TemperatureF,DewpointF,PressureIn,WindDirection,WindDirectionDegrees,WindSpeedMPH,WindSpeedGustMPH,Humidity,HourlyPrecipIn,Conditions,Clouds,dailyrainin,SoftwareType,DateUTC
2013-02-21 00:00:00,25.4,11.9,29.75,NW,318,2.0,2.0,56,0.00,,SKC,0.00,VWS V14.01,2013-02-21 05:00:00,
2013-02-21 00:05:00,25.4,11.9,29.75,WNW,299,0.0,0.0,56,0.00,,SKC,0.00,VWS V14.01,2013-02-21 05:05:00,
2013-02-21 00:06:00,25.4,11.9,29.75,WNW,299,0.0,0.0,56,0.00,,SKC,0.00,VWS V14.01,2013-02-21 05:06:00,
2013-02-21 00:10:00,25.4,11.9,29.75,NNW,333,0.0,0.0,56,0.00,,SKC,0.00,VWS V14.01,2013-02-21 05:10:00,
2013-02-21 00:11:00,25.4,12.3,29.75,NW,318,1.0,2.0,57,0.00,,SKC,0.00,VWS V14.01,2013-02-21 05:11:00,
2013-02-21 00:15:00,25.3,12.2,29.76,NNW,330,0.0,0.0,57,0.00,,SKC,0.00,VWS V14.01,2013-02-21 05:15:00,
2013-02-21 00:16:00,25.3,12.2,29.76,NNW,330,0.0,0.0,57,0.00,,SKC,0.00,VWS V14.01,2013-02-21 05:16:00,
2013-02-21 00:20:00,25.3,12.2,29.76,NW,323,0.0,0.0,57,0.00,,SKC,0.00,VWS V14.01,2013-02-21 05:20:00,
2013-02-21 00:21:00,25.3,12.2,29.76,NW,322,0.0,0.0,57,0.00,,SKC,0.00,VWS V14.01,2013-02-21 05:21:00,
2013-02-21 00:25:00,25.3,12.2,29.76,SSE,157,1.0,2.0,57,0.00,,SKC,0.00,VWS V14.01,2013-02-21 05:25:00,
2013-02-21 00:26:00,25.3,12.2,29.76,SSE,157,1.0,2.0,57,0.00,,SKC,0.00,VWS V14.01,2013-02-21 05:26:00,
2013-02-21 00:27:00,25.3,12.2,29.76,SSE,157,1.0,2.0,57,0.00,,SKC,0.00,VWS V14.01,2013-02-21 05:27:00,
2013-02-21 00:30:00,25.3,12.2,29.76,NNW,340,0.0,0.0,57,0.00,,SKC,0.00,VWS V14.01,2013-02-21 05:30:00,
2013-02-21 00:31:00,25.3,12.2,29.76,NNW,340,0.0,0.0,57,0.00,,SKC,0.00,VWS V14.01,2013-02-21 05:31:00,
2013-02-21 00:32:00,25.3,12.2,29.76,NNW,340,0.0,0.0,57,0.00,,SKC,0.00,VWS V14.01,2013-02-21 05:32:00,
2013-02-21 00:35:00,25.3,12.2,29.76,NW,306,0.0,0.0,57,0.00,,SKC,0.00,VWS V14.01,2013-02-21 05:35:00,
2013-02-21 00:36:00,25.3,12.2,29.76,NW,306,0.0,0.0,57,0.00,,SKC,0.00,VWS V14.01,2013-02-21 05:36:00,
2013-02-21 00:37:00,25.3,12.2,29.76,NW,306,0.0,0.0,57,0.00,,SKC,0.00,VWS V14.01,2013-02-21 05:37:00,
2013-02-21 00:40:00,25.3,13.0,29.76,NW,312,0.0,1.0,59,0.00,,SKC,0.00,VWS V14.01,2013-02-21 05:40:00,
2013-02-21 00:42:00,25.3,13.0,29.76,North,357,0.0,1.0,59,0.00,,SKC,0.00,VWS V14.01,2013-02-21 05:42:00,
2013-02-21 00:45:00,25.3,13.0,29.77,North,356,0.0,0.0,59,0.00,,SKC,0.00,VWS V14.01,2013-02-21 05:45:00,
2013-02-21 00:47:00,25.1,12.8,29.77,WNW,298,2.0,2.0,59,0.00,,SKC,0.00,VWS V14.01,2013-02-21 05:47:00,
2013-02-21 00:48:00,25.1,12.8,29.77,WNW,302,1.0,2.0,59,0.00,,SKC,0.00,VWS V14.01,2013-02-21 05:48:00,
2013-02-21 00:50:00,25.1,12.8,29.77,NNW,332,0.0,1.0,59,0.00,,SKC,0.00,VWS V14.01,2013-02-21 05:50:00,
2013-02-21 00:52:00,25.3,13.0,29.77,NW,306,0.0,1.0,59,0.00,,SKC,0.00,VWS V14.01,2013-02-21 05:52:00,
2013-02-21 00:54:00,25.3,13.4,29.77,WNW,298,0.0,1.0,60,0.00,,SKC,0.00,VWS V14.01,2013-02-21 05:54:00,
2013-02-21 00:55:00,25.3,13.4,29.77,WNW,296,0.0,1.0,60,0.00,,SKC,0.00,VWS V14.01,2013-02-21 05:55:00,
2013-02-21 00:57:00,25.3,13.4,29.77,WNW,296,0.0,0.0,60,0.00,,SKC,0.00,VWS V14.01,2013-02-21 05:57:00,
2013-02-21 00:58:00,25.3,13.4,29.77,WNW,296,0.0,0.0,60,0.00,,SKC,0.00,VWS V14.01,2013-02-21 05:58:00,
2013-02-21 00:59:00,25.1,13.2,29.77,NW,304,0.0,0.0,60,0.00,,SKC,0.00,VWS V14.01,2013-02-21 05:59:00,
2013-02-21 01:00:00,25.1,13.2,29.77,NW,304,0.0,0.0,60,0.00,,SKC,0.00,VWS V14.01,2013-02-21 06:00:00,
2013-02-21 01:02:00,25.1,13.2,29.77,NNW,330,0.0,0.0,60,0.00,,SKC,0.00,VWS V14.01,2013-02-21 06:02:00,
2013-02-21 01:03:00,25.1,13.2,29.77,NNW,330,0.0,0.0,60,0.00,,SKC,0.00,VWS V14.01,2013-02-21 06:03:00,
2013-02-21 01:04:00,25.1,13.2,29.77,NNW,330,0.0,0.0,60,0.00,,SKC,0.00,VWS V14.01,2013-02-21 06:04:00,
2013-02-21 01:05:00,25.1,13.2,29.77,NNW,330,0.0,0.0,60,0.00,,SKC,0.00,VWS V14.01,2013-02-21 06:05:00,
2013-02-21 01:07:00,25.1,13.2,29.77,NW,320,0.0,0.0,60,0.00,,SKC,0.00,VWS V14.01,2013-02-21 06:07:00,
2013-02-21 01:08:00,25.1,13.2,29.77,NW,319,0.0,0.0,60,0.00,,SKC,0.00,VWS V14.01,2013-02-21 06:08:00,
2013-02-21 01:09:00,25.1,13.2,29.77,NW,319,0.0,0.0,60,0.00,,SKC,0.00,VWS V14.01,2013-02-21 06:09:00,
2013-02-21 01:10:00,25.1,13.2,29.77,NW,319,0.0,0.0,60,0.00,,SKC,0.00,VWS V14.01,2013-02-21 06:10:00,
2013-02-21 01:12:00,25.1,13.2,29.77,NNW,329,0.0,0.0,60,0.00,,SKC,0.00,VWS V14.01,2013-02-21 06:12:00,
2013-02-21 01:13:00,25.1,13.2,29.77,NNW,329,0.0,0.0,60,0.00,,SKC,0.00,VWS V14.01,2013-02-21 06:13:00,
2013-02-21 01:14:00,25.1,13.2,29.78,NNW,329,0.0,0.0,60,0.00,,SKC,0.00,VWS V14.01,2013-02-21 06:14:00,
2013-02-21 01:15:00,25.3,13.4,29.78,NW,312,0.0,0.0,60,0.00,,SKC,0.00,VWS V14.01,2013-02-21 06:15:00,
2013-02-21 01:17:00,25.3,13.4,29.78,NW,311,0.0,0.0,60,0.00,,SKC,0.00,VWS V14.01,2013-02-21 06:17:00,
2013-02-21 01:18:00,25.3,13.4,29.78,NW,311,0.0,0.0,60,0.00,,SKC,0.00,VWS V14.01,2013-02-21 06:18:00,
2013-02-21 01:19:00,25.3,13.4,29.78,NW,318,0.0,0.0,60,0.00,,SKC,0.00,VWS V14.01,2013-02-21 06:19:00,
2013-02-21 01:20:00,25.3,13.4,29.78,NW,318,0.0,0.0,60,0.00,,SKC,0.00,VWS V14.01,2013-02-21 06:20:00,
2013-02-21 01:21:00,25.3,13.4,29.78,NW,319,0.0,0.0,60,0.00,,SKC,0.00,VWS V14.01,2013-02-21 06:21:00,
2013-02-21 01:23:00,25.3,13.4,29.78,NW,319,0.0,0.0,60,0.00,,SKC,0.00,VWS V14.01,2013-02-21 06:23:00,
2013-02-21 01:25:00,25.3,13.4,29.78,NW,319,0.0,0.0,60,0.00,,SKC,0.00,VWS V14.01,2013-02-21 06:25:00,
2013-02-21 01:26:00,25.3,13.4,29.78,NW,319,0.0,0.0,60,0.00,,SKC,0.00,VWS V14.01,2013-02-21 06:26:00,
2013-02-21 01:28:00,25.3,13.4,29.78,NNW,330,1.0,1.0,60,0.00,,SKC,0.00,VWS V14.01,2013-02-21 06:28:00,
2013-02-21 01:30:00,25.4,13.5,29.77,NNW,337,0.0,1.0,60,0.00,,SKC,0.00,VWS V14.01,2013-02-21 06:30:00,
2013-02-21 01:31:00,25.4,13.5,29.77,NNW,337,0.0,0.0,60,0.00,,SKC,0.00,VWS V14.01,2013-02-21 06:31:00,
2013-02-21 01:32:00,25.4,13.5,29.77,NW,306,0.0,0.0,60,0.00,,SKC,0.00,VWS V14.01,2013-02-21 06:32:00,
2013-02-21 01:33:00,25.6,13.7,29.77,WNW,294,3.0,3.0,60,0.00,,SKC,0.00,VWS V14.01,2013-02-21 06:33:00,
2013-02-21 01:35:00,25.6,13.7,29.77,NW,322,1.0,3.0,60,0.00,,SKC,0.00,VWS V14.01,2013-02-21 06:35:00,
2013-02-21 01:36:00,25.6,13.7,29.77,NW,322,1.0,1.0,60,0.00,,SKC,0.00,VWS V14.01,2013-02-21 06:36:00,
2013-02-21 01:37:00,25.6,13.7,29.77,NW,322,1.0,1.0,60,0.00,,SKC,0.00,VWS V14.01,2013-02-21 06:37:00,
2013-02-21 01:38:00,25.6,13.7,29.77,WNW,292,1.0,1.0,60,0.00,,SKC,0.00,VWS V14.01,2013-02-21 06:38:00,
2013-02-21 01:39:00,25.6,13.7,29.77,WNW,295,0.0,1.0,60,0.00,,SKC,0.00,VWS V14.01,2013-02-21 06:39:00,
2013-02-21 01:40:00,25.6,13.7,29.77,WNW,295,0.0,1.0,60,0.00,,SKC,0.00,VWS V14.01,2013-02-21 06:40:00,
2013-02-21 01:41:00,25.6,13.7,29.77,WNW,295,0.0,0.0,60,0.00,,SKC,0.00,VWS V14.01,2013-02-21 06:41:00,
2013-02-21 01:42:00,25.6,13.7,29.77,WNW,295,0.0,0.0,60,0.00,,SKC,0.00,VWS V14.01,2013-02-21 06:42:00,
2013-02-21 01:43:00,25.6,13.7,29.77,WNW,295,0.0,0.0,60,0.00,,SKC,0.00,VWS V14.01,2013-02-21 06:43:00,
2013-02-21 01:44:00,25.6,13.7,29.78,NW,320,0.0,0.0,60,0.00,,SKC,0.00,VWS V14.01,2013-02-21 06:44:00,
2013-02-21 01:45:00,25.6,13.7,29.78,NW,320,0.0,0.0,60,0.00,,SKC,0.00,VWS V14.01,2013-02-21 06:45:00,
2013-02-21 01:46:00,25.6,13.7,29.78,WNW,288,0.0,0.0,60,0.00,,SKC,0.00,VWS V14.01,2013-02-21 06:46:00,
2013-02-21 01:47:00,25.6,13.7,29.78,WNW,288,0.0,0.0,60,0.00,,SKC,0.00,VWS V14.01,2013-02-21 06:47:00,
2013-02-21 01:48:00,25.6,13.7,29.78,WNW,288,0.0,0.0,60,0.00,,SKC,0.00,VWS V14.01,2013-02-21 06:48:00,
2013-02-21 01:49:00,25.6,13.7,29.78,WNW,288,0.0,0.0,60,0.00,,SKC,0.00,VWS V14.01,2013-02-21 06:49:00,
2013-02-21 01:50:00,25.6,13.7,29.78,WNW,288,0.0,0.0,60,0.00,,SKC,0.00,VWS V14.01,2013-02-21 06:50:00,
2013-02-21 01:51:00,25.6,13.7,29.78,NW,308,0.0,0.0,60,0.00,,SKC,0.00,VWS V14.01,2013-02-21 06:51:00,
2013-02-21 01:52:00,25.6,13.7,29.78,WSW,251,1.0,1.0,60,0.00,,SKC,0.00,VWS V14.01,2013-02-21 06:52:00,
2013-02-21 01:53:00,25.6,13.7,29.78,WNW,302,1.0,1.0,60,0.00,,SKC,0.00,VWS V14.01,2013-02-21 06:53:00,
2013-02-21 01:54:00,25.6,13.7,29.78,WNW,302,1.0,1.0,60,0.00,,SKC,0.00,VWS V14.01,2013-02-21 06:54:00,
2013-02-21 01:55:00,25.6,13.7,29.78,NW,304,1.0,1.0,60,0.00,,SKC,0.00,VWS V14.01,2013-02-21 06:55:00,
2013-02-21 01:57:00,25.6,13.7,29.78,WNW,299,1.0,1.0,60,0.00,,SKC,0.00,VWS V14.01,2013-02-21 06:57:00,
2013-02-21 01:58:00,25.6,13.7,29.78,WNW,299,1.0,1.0,60,0.00,,SKC,0.00,VWS V14.01,2013-02-21 06:58:00,
2013-02-21 01:59:00,25.6,13.7,29.77,WNW,299,1.0,1.0,60,0.00,,SKC,0.00,VWS V14.01,2013-02-21 06:59:00,
2013-02-21 02:00:00,25.7,13.8,29.77,NW,309,1.0,1.0,60,0.00,,SKC,0.00,VWS V14.01,2013-02-21 07:00:00,
2013-02-21 02:02:00,25.7,13.8,29.77,NW,323,0.0,1.0,60,0.00,,SKC,0.00,VWS V14.01,2013-02-21 07:02:00,
2013-02-21 02:03:00,25.7,13.8,29.77,NW,323,0.0,1.0,60,0.00,,SKC,0.00,VWS V14.01,2013-02-21 07:03:00,
2013-02-21 02:04:00,25.7,13.8,29.77,NW,319,0.0,1.0,60,0.00,,SKC,0.00,VWS V14.01,2013-02-21 07:04:00,
2013-02-21 02:05:00,25.7,13.8,29.77,NW,319,0.0,0.0,60,0.00,,SKC,0.00,VWS V14.01,2013-02-21 07:05:00,
2013-02-21 02:07:00,25.7,13.8,29.77,NW,319,0.0,0.0,60,0.00,,SKC,0.00,VWS V14.01,2013-02-21 07:07:00,
2013-02-21 02:08:00,25.7,13.8,29.77,NW,319,0.0,0.0,60,0.00,,SKC,0.00,VWS V14.01,2013-02-21 07:08:00,
2013-02-21 02:09:00,25.7,13.8,29.77,WNW,298,0.0,0.0,60,0.00,,SKC,0.00,VWS V14.01,2013-02-21 07:09:00,
2013-02-21 02:10:00,25.7,13.8,29.77,WNW,298,0.0,0.0,60,0.00,,SKC,0.00,VWS V14.01,2013-02-21 07:10:00,
2013-02-21 02:12:00,25.7,13.8,29.77,WNW,296,0.0,0.0,60,0.00,,SKC,0.00,VWS V14.01,2013-02-21 07:12:00,
2013-02-21 02:13:00,25.7,13.8,29.77,WNW,299,0.0,0.0,60,0.00,,SKC,0.00,VWS V14.01,2013-02-21 07:13:00,
2013-02-21 02:15:00,25.7,13.8,29.77,WNW,299,0.0,0.0,60,0.00,,SKC,0.00,VWS V14.01,2013-02-21 07:15:00,
2013-02-21 02:18:00,25.6,13.7,29.77,NNW,344,0.0,0.0,60,0.00,,SKC,0.00,VWS V14.01,2013-02-21 07:18:00,
2013-02-21 02:20:00,25.6,13.7,29.77,NNW,344,0.0,0.0,60,0.00,,SKC,0.00,VWS V14.01,2013-02-21 07:20:00,
2013-02-21 02:21:00,25.6,13.7,29.77,NNW,344,0.0,0.0,60,0.00,,SKC,0.00,VWS V14.01,2013-02-21 07:21:00,
2013-02-21 02:24:00,25.6,13.7,29.77,NNW,342,0.0,0.0,60,0.00,,SKC,0.00,VWS V14.01,2013-02-21 07:24:00,
2013-02-21 02:25:00,25.6,13.7,29.77,WNW,299,0.0,0.0,60,0.00,,SKC,0.00,VWS V14.01,2013-02-21 07:25:00,
2013-02-21 02:26:00,25.6,13.7,29.77,WNW,299,0.0,0.0,60,0.00,,SKC,0.00,VWS V14.01,2013-02-21 07:26:00,
2013-02-21 02:29:00,25.6,13.7,29.77,WNW,299,0.0,0.0,60,0.00,,SKC,0.00,VWS V14.01,2013-02-21 07:29:00,
2013-02-21 02:30:00,25.6,13.7,29.77,WNW,302,0.0,0.0,60,0.00,,SKC,0.00,VWS V14.01,2013-02-21 07:30:00,
2013-02-21 02:31:00,25.6,13.7,29.77,WNW,302,0.0,0.0,60,0.00,,SKC,0.00,VWS V14.01,2013-02-21 07:31:00,
2013-02-21 02:34:00,25.6,13.7,29.77,WNW,302,0.0,0.0,60,0.00,,SKC,0.00,VWS V14.01,2013-02-21 07:34:00,
2013-02-21 02:35:00,25.6,13.7,29.77,WNW,302,0.0,0.0,60,0.00,,SKC,0.00,VWS V14.01,2013-02-21 07:35:00,
2013-02-21 02:36:00,25.6,13.7,29.77,NW,312,0.0,0.0,60,0.00,,SKC,0.00,VWS V14.01,2013-02-21 07:36:00,
2013-02-21 02:37:00,25.6,13.7,29.77,NW,312,0.0,0.0,60,0.00,,SKC,0.00,VWS V14.01,2013-02-21 07:37:00,
2013-02-21 02:40:00,25.7,13.8,29.77,WNW,294,0.0,0.0,60,0.00,,SKC,0.00,VWS V14.01,2013-02-21 07:40:00,
2013-02-21 02:42:00,25.7,13.8,29.77,NW,311,0.0,0.0,60,0.00,,SKC,0.00,VWS V14.01,2013-02-21 07:42:00,
2013-02-21 02:43:00,25.7,13.8,29.77,NW,311,0.0,0.0,60,0.00,,SKC,0.00,VWS V14.01,2013-02-21 07:43:00,
2013-02-21 02:45:00,25.7,13.8,29.77,NW,313,0.0,0.0,60,0.00,,SKC,0.00,VWS V14.01,2013-02-21 07:45:00,
2013-02-21 02:46:00,25.7,13.8,29.77,West,274,1.0,1.0,60,0.00,,SKC,0.00,VWS V14.01,2013-02-21 07:46:00,
2013-02-21 02:48:00,25.7,13.8,29.77,NW,326,0.0,1.0,60,0.00,,SKC,0.00,VWS V14.01,2013-02-21 07:48:00,
2013-02-21 02:49:00,25.7,13.8,29.77,NW,326,0.0,1.0,60,0.00,,SKC,0.00,VWS V14.01,2013-02-21 07:49:00,
2013-02-21 02:50:00,25.7,13.8,29.77,NW,325,0.0,0.0,60,0.00,,SKC,0.00,VWS V14.01,2013-02-21 07:50:00,
2013-02-21 02:51:00,25.7,13.8,29.77,NW,325,0.0,0.0,60,0.00,,SKC,0.00,VWS V14.01,2013-02-21 07:51:00,
2013-02-21 02:53:00,25.7,13.8,29.77,NW,326,0.0,0.0,60,0.00,,SKC,0.00,VWS V14.01,2013-02-21 07:53:00,
2013-02-21 02:55:00,25.7,13.8,29.77,NW,326,0.0,0.0,60,0.00,,SKC,0.00,VWS V14.01,2013-02-21 07:55:00,
2013-02-21 02:56:00,25.7,13.8,29.77,NW,326,0.0,0.0,60,0.00,,SKC,0.00,VWS V14.01,2013-02-21 07:56:00,
2013-02-21 02:58:00,25.7,13.8,29.77,NNW,332,0.0,0.0,60,0.00,,SKC,0.00,VWS V14.01,2013-02-21 07:58:00,
2013-02-21 03:00:00,25.7,13.8,29.77,NNW,339,0.0,0.0,60,0.00,,SKC,0.00,VWS V14.01,2013-02-21 08:00:00,
2013-02-21 03:01:00,25.7,13.8,29.77,NNW,333,0.0,0.0,60,0.00,,SKC,0.00,VWS V14.01,2013-02-21 08:01:00,
2013-02-21 03:02:00,25.7,13.8,29.77,NNW,333,0.0,0.0,60,0.00,,SKC,0.00,VWS V14.01,2013-02-21 08:02:00,
2013-02-21 03:03:00,25.8,13.9,29.77,WNW,298,0.0,0.0,60,0.00,,SKC,0.00,VWS V14.01,2013-02-21 08:03:00,
2013-02-21 03:05:00,25.8,13.9,29.77,NW,325,0.0,0.0,60,0.00,,SKC,0.00,VWS V14.01,2013-02-21 08:05:00,
2013-02-21 03:06:00,25.8,13.9,29.77,NW,326,0.0,0.0,60,0.00,,SKC,0.00,VWS V14.01,2013-02-21 08:06:00,
2013-02-21 03:07:00,25.8,13.9,29.77,NW,326,0.0,0.0,60,0.00,,SKC,0.00,VWS V14.01,2013-02-21 08:07:00,
2013-02-21 03:08:00,25.8,13.9,29.77,NW,326,0.0,0.0,60,0.00,,SKC,0.00,VWS V14.01,2013-02-21 08:08:00,
2013-02-21 03:10:00,25.8,13.9,29.77,NW,326,0.0,0.0,60,0.00,,SKC,0.00,VWS V14.01,2013-02-21 08:10:00,
2013-02-21 03:11:00,25.8,13.9,29.77,NW,315,0.0,0.0,60,0.00,,SKC,0.00,VWS V14.01,2013-02-21 08:11:00,
2013-02-21 03:12:00,25.8,13.9,29.77,NW,315,0.0,0.0,60,0.00,,SKC,0.00,VWS V14.01,2013-02-21 08:12:00,
2013-02-21 03:13:00,25.8,13.9,29.77,NW,315,0.0,0.0,60,0.00,,SKC,0.00,VWS V14.01,2013-02-21 08:13:00,
2013-02-21 03:15:00,25.8,13.9,29.77,NW,322,2.0,2.0,60,0.00,,SKC,0.00,VWS V14.01,2013-02-21 08:15:00,
2013-02-21 03:16:00,25.8,13.9,29.77,NW,313,2.0,2.0,60,0.00,,SKC,0.00,VWS V14.01,2013-02-21 08:16:00,
2013-02-21 03:17:00,25.8,13.9,29.77,NW,313,2.0,2.0,60,0.00,,SKC,0.00,VWS V14.01,2013-02-21 08:17:00,
2013-02-21 03:18:00,25.8,13.9,29.77,WNW,302,0.0,2.0,60,0.00,,SKC,0.00,VWS V14.01,2013-02-21 08:18:00,
2013-02-21 03:19:00,25.8,13.9,29.77,WNW,302,0.0,2.0,60,0.00,,SKC,0.00,VWS V14.01,2013-02-21 08:19:00,
2013-02-21 03:20:00,25.8,13.9,29.77,WNW,302,0.0,2.0,60,0.00,,SKC,0.00,VWS V14.01,2013-02-21 08:20:00,
2013-02-21 03:21:00,25.8,13.9,29.77,WNW,302,0.0,0.0,60,0.00,,SKC,0.00,VWS V14.01,2013-02-21 08:21:00,
2013-02-21 03:22:00,25.8,13.9,29.77,WNW,302,0.0,0.0,60,0.00,,SKC,0.00,VWS V14.01,2013-02-21 08:22:00,
2013-02-21 03:23:00,25.8,13.9,29.77,NNW,329,1.0,1.0,60,0.00,,SKC,0.00,VWS V14.01,2013-02-21 08:23:00,
2013-02-21 03:24:00,25.8,13.9,29.77,NW,318,1.0,1.0,60,0.00,,SKC,0.00,VWS V14.01,2013-02-21 08:24:00,
2013-02-21 03:25:00,25.8,13.9,29.77,NNW,329,1.0,1.0,60,0.00,,SKC,0.00,VWS V14.01,2013-02-21 08:25:00,
2013-02-21 03:27:00,25.7,13.8,29.77,WNW,302,0.0,3.0,60,0.00,,SKC,0.00,VWS V14.01,2013-02-21 08:27:00,
2013-02-21 03:28:00,25.7,13.8,29.77,WNW,302,0.0,3.0,60,0.00,,SKC,0.00,VWS V14.01,2013-02-21 08:28:00,
2013-02-21 03:30:00,25.7,13.8,29.77,NNW,329,0.0,0.0,60,0.00,,SKC,0.00,VWS V14.01,2013-02-21 08:30:00,
2013-02-21 03:32:00,25.6,13.7,29.77,WNW,299,0.0,3.0,60,0.00,,SKC,0.00,VWS V14.01,2013-02-21 08:32:00,
2013-02-21 03:33:00,25.6,13.7,29.77,WNW,299,0.0,3.0,60,0.00,,SKC,0.00,VWS V14.01,2013-02-21 08:33:00,
2013-02-21 03:35:00,25.6,13.7,29.77,NW,319,0.0,0.0,60,0.00,,SKC,0.00,VWS V14.01,2013-02-21 08:35:00,
2013-02-21 03:38:00,25.6,13.7,29.77,NW,323,0.0,0.0,60,0.00,,SKC,0.00,VWS V14.01,2013-02-21 08:38:00,
2013-02-21 03:40:00,25.4,13.5,29.77,WNW,292,0.0,0.0,60,0.00,,SKC,0.00,VWS V14.01,2013-02-21 08:40:00,
2013-02-21 03:43:00,25.4,13.5,29.77,WNW,294,6.0,6.0,60,0.00,,SKC,0.00,VWS V14.01,2013-02-21 08:43:00,
2013-02-21 03:44:00,25.4,13.5,29.78,NNW,340,0.0,6.0,60,0.00,,SKC,0.00,VWS V14.01,2013-02-21 08:44:00,
2013-02-21 03:45:00,25.4,13.5,29.78,NW,306,0.0,2.0,60,0.00,,SKC,0.00,VWS V14.01,2013-02-21 08:45:00,
2013-02-21 03:48:00,25.4,13.5,29.78,NW,306,0.0,2.0,60,0.00,,SKC,0.00,VWS V14.01,2013-02-21 08:48:00,
2013-02-21 03:50:00,25.1,12.0,29.78,NW,323,0.0,2.0,57,0.00,,SKC,0.00,VWS V14.01,2013-02-21 08:50:00,
2013-02-21 03:51:00,25.4,13.5,29.78,NW,306,0.0,0.0,60,0.00,,SKC,0.00,VWS V14.01,2013-02-21 08:51:00,
2013-02-21 03:54:00,25.4,13.5,29.78,NW,306,0.0,0.0,60,0.00,,SKC,0.00,VWS V14.01,2013-02-21 08:54:00,
2013-02-21 03:55:00,25.4,13.5,29.78,NW,308,0.0,0.0,60,0.00,,SKC,0.00,VWS V14.01,2013-02-21 08:55:00,
2013-02-21 03:56:00,25.4,13.5,29.78,NW,308,0.0,0.0,60,0.00,,SKC,0.00,VWS V14.01,2013-02-21 08:56:00,
2013-02-21 03:59:00,25.4,13.8,29.78,WNW,302,0.0,0.0,61,0.00,,SKC,0.00,VWS V14.01,2013-02-21 08:59:00,
2013-02-21 04:00:00,25.4,13.8,29.78,WNW,302,0.0,0.0,61,0.00,,SKC,0.00,VWS V14.01,2013-02-21 09:00:00,
2013-02-21 04:01:00,25.4,13.8,29.78,NW,308,1.0,1.0,61,0.00,,SKC,0.00,VWS V14.01,2013-02-21 09:01:00,
2013-02-21 04:04:00,25.1,13.6,29.78,NNW,328,2.0,2.0,61,0.00,,SKC,0.00,VWS V14.01,2013-02-21 09:04:00,
2013-02-21 04:05:00,25.1,13.6,29.78,NNW,328,2.0,2.0,61,0.00,,SKC,0.00,VWS V14.01,2013-02-21 09:05:00,
2013-02-21 04:06:00,25.1,13.6,29.78,NNW,328,1.0,2.0,61,0.00,,SKC,0.00,VWS V14.01,2013-02-21 09:06:00,
2013-02-21 04:07:00,25.1,13.6,29.78,NW,318,0.0,2.0,61,0.00,,SKC,0.00,VWS V14.01,2013-02-21 09:07:00,
2013-02-21 04:09:00,25.1,13.6,29.78,NNW,330,0.0,2.0,61,0.00,,SKC,0.00,VWS V14.01,2013-02-21 09:09:00,
2013-02-21 04:10:00,25.1,13.6,29.78,NNW,330,0.0,0.0,61,0.00,,SKC,0.00,VWS V14.01,2013-02-21 09:10:00,
2013-02-21 04:11:00,25.1,13.6,29.78,NW,312,0.0,0.0,61,0.00,,SKC,0.00,VWS V14.01,2013-02-21 09:11:00,
2013-02-21 04:12:00,25.1,13.6,29.78,NW,312,0.0,0.0,61,0.00,,SKC,0.00,VWS V14.01,2013-02-21 09:12:00,
2013-02-21 04:14:00,25.1,13.6,29.78,NW,312,0.0,0.0,61,0.00,,SKC,0.00,VWS V14.01,2013-02-21 09:14:00,
2013-02-21 04:15:00,25.1,13.6,29.78,NW,308,0.0,0.0,61,0.00,,SKC,0.00,VWS V14.01,2013-02-21 09:15:00,
2013-02-21 04:17:00,25.1,13.6,29.78,NW,325,0.0,0.0,61,0.00,,SKC,0.00,VWS V14.01,2013-02-21 09:17:00,
2013-02-21 04:19:00,25.1,13.6,29.78,NW,325,0.0,0.0,61,0.00,,SKC,0.00,VWS V14.01,2013-02-21 09:19:00,
2013-02-21 04:20:00,25.1,13.6,29.78,NW,325,2.0,2.0,61,0.00,,SKC,0.00,VWS V14.01,2013-02-21 09:20:00,
2013-02-21 04:22:00,25.1,13.6,29.78,WNW,289,1.0,2.0,61,0.00,,SKC,0.00,VWS V14.01,2013-02-21 09:22:00,
2013-02-21 04:24:00,25.1,12.4,29.78,NW,305,0.0,3.0,58,0.00,,SKC,0.00,VWS V14.01,2013-02-21 09:24:00,
2013-02-21 04:25:00,25.1,12.4,29.78,NW,305,0.0,0.0,58,0.00,,SKC,0.00,VWS V14.01,2013-02-21 09:25:00,
2013-02-21 04:27:00,25.1,12.4,29.78,NW,313,1.0,1.0,58,0.00,,SKC,0.00,VWS V14.01,2013-02-21 09:27:00,
2013-02-21 04:30:00,25.1,12.4,29.78,NNW,335,0.0,0.0,58,0.00,,SKC,0.00,VWS V14.01,2013-02-21 09:30:00,
2013-02-21 04:31:00,25.1,12.4,29.78,NNW,335,0.0,0.0,58,0.00,,SKC,0.00,VWS V14.01,2013-02-21 09:31:00,
2013-02-21 04:32:00,25.1,12.4,29.78,NW,312,1.0,1.0,58,0.00,,SKC,0.00,VWS V14.01,2013-02-21 09:32:00,
2013-02-21 04:33:00,25.1,12.4,29.78,NW,312,1.0,1.0,58,0.00,,SKC,0.00,VWS V14.01,2013-02-21 09:33:00,
2013-02-21 04:35:00,25.1,12.4,29.78,NW,308,0.0,0.0,58,0.00,,SKC,0.00,VWS V14.01,2013-02-21 09:35:00,
2013-02-21 04:36:00,25.1,12.4,29.78,NW,308,0.0,0.0,58,0.00,,SKC,0.00,VWS V14.01,2013-02-21 09:36:00,
2013-02-21 04:38:00,25.1,12.4,29.78,NW,319,0.0,2.0,58,0.00,,SKC,0.00,VWS V14.01,2013-02-21 09:38:00,
2013-02-21 04:39:00,25.1,12.4,29.78,NW,319,0.0,2.0,58,0.00,,SKC,0.00,VWS V14.01,2013-02-21 09:39:00,
2013-02-21 04:40:00,25.1,12.4,29.78,NW,319,0.0,0.0,58,0.00,,SKC,0.00,VWS V14.01,2013-02-21 09:40:00,
2013-02-21 04:41:00,25.1,12.4,29.78,NW,319,0.0,0.0,58,0.00,,SKC,0.00,VWS V14.01,2013-02-21 09:41:00,
2013-02-21 04:43:00,25.1,12.4,29.78,WNW,292,0.0,1.0,58,0.00,,SKC,0.00,VWS V14.01,2013-02-21 09:43:00,
2013-02-21 04:44:00,25.1,12.4,29.78,WNW,292,0.0,1.0,58,0.00,,SKC,0.00,VWS V14.01,2013-02-21 09:44:00,
2013-02-21 04:45:00,25.1,12.4,29.78,WNW,292,0.0,1.0,58,0.00,,SKC,0.00,VWS V14.01,2013-02-21 09:45:00,
2013-02-21 04:46:00,25.1,12.4,29.78,NW,304,1.0,2.0,58,0.00,,SKC,0.00,VWS V14.01,2013-02-21 09:46:00,
2013-02-21 04:49:00,25.1,12.0,29.78,NW,323,0.0,2.0,57,0.00,,SKC,0.00,VWS V14.01,2013-02-21 09:49:00,
2013-02-21 04:50:00,25.1,12.0,29.78,NW,323,0.0,2.0,57,0.00,,SKC,0.00,VWS V14.01,2013-02-21 09:50:00,
2013-02-21 04:51:00,25.1,12.0,29.78,NW,323,0.0,0.0,57,0.00,,SKC,0.00,VWS V14.01,2013-02-21 09:51:00,
2013-02-21 04:54:00,25.1,12.0,29.78,NW,308,2.0,2.0,57,0.00,,SKC,0.00,VWS V14.01,2013-02-21 09:54:00,
2013-02-21 04:55:00,25.1,12.0,29.78,NW,308,2.0,2.0,57,0.00,,SKC,0.00,VWS V14.01,2013-02-21 09:55:00,
2013-02-21 04:56:00,25.1,12.0,29.78,WNW,299,0.0,2.0,57,0.00,,SKC,0.00,VWS V14.01,2013-02-21 09:56:00,
2013-02-21 04:57:00,25.1,12.0,29.78,WNW,299,0.0,2.0,57,0.00,,SKC,0.00,VWS V14.01,2013-02-21 09:57:00,
2013-02-21 04:59:00,25.1,12.0,29.78,NW,305,0.0,0.0,57,0.00,,SKC,0.00,VWS V14.01,2013-02-21 09:59:00,
2013-02-21 05:00:00,25.1,12.0,29.78,NW,305,0.0,2.0,57,0.00,,SKC,0.00,VWS V14.01,2013-02-21 10:00:00,
2013-02-21 05:01:00,25.1,12.0,29.78,WNW,285,0.0,0.0,57,0.00,,SKC,0.00,VWS V14.01,2013-02-21 10:01:00,
2013-02-21 05:02:00,25.0,11.9,29.78,NNW,328,2.0,2.0,57,0.00,,SKC,0.00,VWS V14.01,2013-02-21 10:02:00,
2013-02-21 05:05:00,25.0,11.9,29.78,NNW,328,2.0,2.0,57,0.00,,SKC,0.00,VWS V14.01,2013-02-21 10:05:00,
2013-02-21 05:06:00,25.0,11.9,29.78,WNW,302,0.0,2.0,57,0.00,,SKC,0.00,VWS V14.01,2013-02-21 10:06:00,
2013-02-21 05:07:00,25.0,11.9,29.78,WNW,302,0.0,2.0,57,0.00,,SKC,0.00,VWS V14.01,2013-02-21 10:07:00,
2013-02-21 05:10:00,24.8,11.7,29.78,NW,320,0.0,2.0,57,0.00,,SKC,0.00,VWS V14.01,2013-02-21 10:10:00,
2013-02-21 05:11:00,24.8,11.7,29.78,NW,311,1.0,2.0,57,0.00,,SKC,0.00,VWS V14.01,2013-02-21 10:11:00,
2013-02-21 05:13:00,24.8,11.7,29.78,NW,311,1.0,2.0,57,0.00,,SKC,0.00,VWS V14.01,2013-02-21 10:13:00,
2013-02-21 05:15:00,24.7,11.6,29.79,NW,313,0.0,0.0,57,0.00,,SKC,0.00,VWS V14.01,2013-02-21 10:15:00,
2013-02-21 05:16:00,24.7,11.6,29.79,NW,313,0.0,0.0,57,0.00,,SKC,0.00,VWS V14.01,2013-02-21 10:16:00,
2013-02-21 05:18:00,24.7,11.6,29.79,NW,313,0.0,0.0,57,0.00,,SKC,0.00,VWS V14.01,2013-02-21 10:18:00,
2013-02-21 05:20:00,24.7,11.6,29.79,NW,326,3.0,3.0,57,0.00,,SKC,0.00,VWS V14.01,2013-02-21 10:20:00,
2013-02-21 05:21:00,24.7,11.6,29.79,WNW,299,3.0,3.0,57,0.00,,SKC,0.00,VWS V14.01,2013-02-21 10:21:00,
2013-02-21 05:22:00,24.7,11.6,29.79,WNW,299,3.0,3.0,57,0.00,,SKC,0.00,VWS V14.01,2013-02-21 10:22:00,
2013-02-21 05:23:00,24.7,11.6,29.79,NW,309,4.0,4.0,57,0.00,,SKC,0.00,VWS V14.01,2013-02-21 10:23:00,
2013-02-21 05:24:00,24.7,11.6,29.79,NW,309,4.0,4.0,57,0.00,,SKC,0.00,VWS V14.01,2013-02-21 10:24:00,
2013-02-21 05:25:00,24.7,11.6,29.79,NW,309,4.0,4.0,57,0.00,,SKC,0.00,VWS V14.01,2013-02-21 10:25:00,
2013-02-21 05:26:00,24.7,11.6,29.79,NW,325,0.0,4.0,57,0.00,,SKC,0.00,VWS V14.01,2013-02-21 10:26:00,
2013-02-21 05:27:00,24.7,11.6,29.79,SSE,161,1.0,4.0,57,0.00,,SKC,0.00,VWS V14.01,2013-02-21 10:27:00,
2013-02-21 05:28:00,24.7,11.6,29.79,SSE,161,1.0,4.0,57,0.00,,SKC,0.00,VWS V14.01,2013-02-21 10:28:00,
2013-02-21 05:29:00,24.7,11.6,29.79,SSE,161,1.0,4.0,57,0.00,,SKC,0.00,VWS V14.01,2013-02-21 10:29:00,
2013-02-21 05:30:00,24.7,11.6,29.79,SSE,161,1.0,4.0,57,0.00,,SKC,0.00,VWS V14.01,2013-02-21 10:30:00,
2013-02-21 05:31:00,24.5,11.5,29.79,WNW,301,3.0,3.0,57,0.00,,SKC,0.00,VWS V14.01,2013-02-21 10:31:00,
2013-02-21 05:33:00,24.5,11.1,29.79,NNW,328,2.0,3.0,56,0.00,,SKC,0.00,VWS V14.01,2013-02-21 10:33:00,
2013-02-21 05:34:00,24.5,11.1,29.79,NNW,328,2.0,3.0,56,0.00,,SKC,0.00,VWS V14.01,2013-02-21 10:34:00,
2013-02-21 05:35:00,24.5,11.1,29.79,NNW,328,2.0,3.0,56,0.00,,SKC,0.00,VWS V14.01,2013-02-21 10:35:00,
2013-02-21 05:37:00,24.5,11.1,29.79,West,281,0.0,2.0,56,0.00,,SKC,0.00,VWS V14.01,2013-02-21 10:37:00,
2013-02-21 05:38:00,24.5,11.5,29.79,NW,318,1.0,2.0,57,0.00,,SKC,0.00,VWS V14.01,2013-02-21 10:38:00,
2013-02-21 05:39:00,24.5,11.5,29.79,NNW,335,1.0,2.0,57,0.00,,SKC,0.00,VWS V14.01,2013-02-21 10:39:00,
2013-02-21 05:40:00,24.5,11.5,29.79,NNW,335,1.0,2.0,57,0.00,,SKC,0.00,VWS V14.01,2013-02-21 10:40:00,
2013-02-21 05:42:00,24.5,11.5,29.79,WNW,296,0.0,1.0,57,0.00,,SKC,0.00,VWS V14.01,2013-02-21 10:42:00,
2013-02-21 05:43:00,24.5,11.5,29.79,WNW,296,0.0,1.0,57,0.00,,SKC,0.00,VWS V14.01,2013-02-21 10:43:00,
2013-02-21 05:44:00,24.5,11.5,29.79,NW,315,0.0,1.0,57,0.00,,SKC,0.00,VWS V14.01,2013-02-21 10:44:00,
2013-02-21 05:45:00,24.5,11.5,29.79,NW,313,0.0,1.0,57,0.00,,SKC,0.00,VWS V14.01,2013-02-21 10:45:00,
2013-02-21 05:47:00,24.5,11.5,29.79,NW,318,2.0,2.0,57,0.00,,SKC,0.00,VWS V14.01,2013-02-21 10:47:00,
2013-02-21 05:49:00,24.5,11.1,29.79,NW,316,2.0,2.0,56,0.00,,SKC,0.00,VWS V14.01,2013-02-21 10:49:00,
2013-02-21 05:50:00,24.5,11.1,29.79,NW,316,2.0,2.0,56,0.00,,SKC,0.00,VWS V14.01,2013-02-21 10:50:00,
2013-02-21 05:52:00,24.4,11.0,29.79,NW,311,0.0,2.0,56,0.00,,SKC,0.00,VWS V14.01,2013-02-21 10:52:00,
2013-02-21 05:54:00,24.4,11.0,29.79,NW,311,0.0,2.0,56,0.00,,SKC,0.00,VWS V14.01,2013-02-21 10:54:00,
2013-02-21 05:55:00,24.4,11.0,29.79,NW,311,1.0,1.0,56,0.00,,SKC,0.00,VWS V14.01,2013-02-21 10:55:00,
2013-02-21 05:57:00,24.4,11.0,29.79,NW,318,1.0,1.0,56,0.00,,SKC,0.00,VWS V14.01,2013-02-21 10:57:00,
2013-02-21 05:59:00,24.4,11.0,29.79,NW,309,1.0,1.0,56,0.00,,SKC,0.00,VWS V14.01,2013-02-21 10:59:00,
2013-02-21 06:00:00,24.4,11.0,29.79,NW,309,1.0,1.0,56,0.00,,SKC,0.00,VWS V14.01,2013-02-21 11:00:00,
2013-02-21 06:01:00,24.4,11.0,29.79,NW,318,0.0,2.0,56,0.00,,SKC,0.00,VWS V14.01,2013-02-21 11:01:00,
2013-02-21 06:02:00,24.4,11.0,29.79,NW,318,0.0,2.0,56,0.00,,SKC,0.00,VWS V14.01,2013-02-21 11:02:00,
2013-02-21 06:04:00,24.4,11.0,29.79,WNW,301,2.0,2.0,56,0.00,,SKC,0.00,VWS V14.01,2013-02-21 11:04:00,
2013-02-21 06:05:00,24.4,11.0,29.79,WNW,291,1.0,2.0,56,0.00,,SKC,0.00,VWS V14.01,2013-02-21 11:05:00,
2013-02-21 06:06:00,24.4,11.0,29.79,WNW,291,1.0,2.0,56,0.00,,SKC,0.00,VWS V14.01,2013-02-21 11:06:00,
2013-02-21 06:07:00,24.4,11.0,29.79,WNW,291,1.0,2.0,56,0.00,,SKC,0.00,VWS V14.01,2013-02-21 11:07:00,
2013-02-21 06:10:00,24.2,10.8,29.79,NNW,333,0.0,1.0,56,0.00,,SKC,0.00,VWS V14.01,2013-02-21 11:10:00,
2013-02-21 06:11:00,24.2,10.8,29.79,West,278,0.0,1.0,56,0.00,,SKC,0.00,VWS V14.01,2013-02-21 11:11:00,
2013-02-21 06:13:00,24.2,10.8,29.79,West,278,0.0,1.0,56,0.00,,SKC,0.00,VWS V14.01,2013-02-21 11:13:00,
2013-02-21 06:15:00,24.2,10.8,29.80,NW,309,2.0,2.0,56,0.00,,SKC,0.00,VWS V14.01,2013-02-21 11:15:00,
2013-02-21 06:16:00,24.2,10.8,29.80,NW,306,0.0,2.0,56,0.00,,SKC,0.00,VWS V14.01,2013-02-21 11:16:00,
2013-02-21 06:18:00,24.2,10.8,29.80,NW,325,0.0,2.0,56,0.00,,SKC,0.00,VWS V14.01,2013-02-21 11:18:00,
2013-02-21 06:20:00,24.2,10.8,29.80,NW,325,0.0,2.0,56,0.00,,SKC,0.00,VWS V14.01,2013-02-21 11:20:00,
2013-02-21 06:21:00,24.2,10.8,29.80,NW,309,2.0,2.0,56,0.00,,SKC,0.00,VWS V14.01,2013-02-21 11:21:00,
2013-02-21 06:22:00,24.2,10.8,29.80,NW,309,2.0,2.0,56,0.00,,SKC,0.00,VWS V14.01,2013-02-21 11:22:00,
2013-02-21 06:24:00,24.2,10.8,29.80,NW,304,1.0,2.0,56,0.00,,SKC,0.00,VWS V14.01,2013-02-21 11:24:00,
2013-02-21 06:25:00,24.2,10.8,29.80,NW,304,1.0,2.0,56,0.00,,SKC,0.00,VWS V14.01,2013-02-21 11:25:00,
2013-02-21 06:26:00,24.1,10.7,29.80,WNW,288,0.0,1.0,56,0.00,,SKC,0.00,VWS V14.01,2013-02-21 11:26:00,
2013-02-21 06:27:00,24.1,10.7,29.80,WNW,298,3.0,3.0,56,0.00,,SKC,0.00,VWS V14.01,2013-02-21 11:27:00,
2013-02-21 06:29:00,24.1,10.7,29.79,North,359,1.0,3.0,56,0.00,,SKC,0.00,VWS V14.01,2013-02-21 11:29:00,
2013-02-21 06:30:00,24.1,10.7,29.79,NNW,329,0.0,3.0,56,0.00,,SKC,0.00,VWS V14.01,2013-02-21 11:30:00,
2013-02-21 06:31:00,24.1,10.7,29.79,NNW,329,0.0,0.0,56,0.00,,SKC,0.00,VWS V14.01,2013-02-21 11:31:00,
2013-02-21 06:32:00,24.1,10.7,29.79,NNW,329,0.0,0.0,56,0.00,,SKC,0.00,VWS V14.01,2013-02-21 11:32:00,
2013-02-21 06:34:00,24.1,10.7,29.79,WNW,289,5.0,5.0,56,0.00,,SKC,0.00,VWS V14.01,2013-02-21 11:34:00,
2013-02-21 06:35:00,24.1,10.7,29.79,WNW,289,5.0,5.0,56,0.00,,SKC,0.00,VWS V14.01,2013-02-21 11:35:00,
2013-02-21 06:36:00,24.1,10.7,29.79,NW,319,1.0,5.0,56,0.00,,SKC,0.00,VWS V14.01,2013-02-21 11:36:00,
2013-02-21 06:37:00,24.1,10.7,29.79,NW,319,1.0,5.0,56,0.00,,SKC,0.00,VWS V14.01,2013-02-21 11:37:00,
2013-02-21 06:38:00,24.1,10.7,29.79,WNW,298,0.0,5.0,56,0.00,,SKC,0.00,VWS V14.01,2013-02-21 11:38:00,
2013-02-21 06:40:00,24.1,10.7,29.79,NNW,333,0.0,0.0,56,0.00,,SKC,0.00,VWS V14.01,2013-02-21 11:40:00,
2013-02-21 06:42:00,24.1,10.7,29.79,NNW,339,0.0,0.0,56,0.00,,SKC,0.00,VWS V14.01,2013-02-21 11:42:00,
2013-02-21 06:43:00,24.1,10.7,29.79,NNW,339,0.0,0.0,56,0.00,,SKC,0.00,VWS V14.01,2013-02-21 11:43:00,
2013-02-21 06:45:00,24.1,10.7,29.80,NNW,340,0.0,0.0,56,0.00,,SKC,0.00,VWS V14.01,2013-02-21 11:45:00,
2013-02-21 06:47:00,23.8,10.4,29.80,WNW,298,0.0,0.0,56,0.00,,SKC,0.00,VWS V14.01,2013-02-21 11:47:00,
2013-02-21 06:48:00,23.8,10.4,29.80,NW,304,0.0,0.0,56,0.00,,SKC,0.00,VWS V14.01,2013-02-21 11:48:00,
2013-02-21 06:50:00,23.6,10.2,29.80,NW,312,2.0,2.0,56,0.00,,SKC,0.00,VWS V14.01,2013-02-21 11:50:00,
2013-02-21 06:52:00,23.6,10.2,29.80,WNW,295,0.0,2.0,56,0.00,,SKC,0.00,VWS V14.01,2013-02-21 11:52:00,
2013-02-21 06:53:00,23.6,10.2,29.80,WNW,285,0.0,2.0,56,0.00,,SKC,0.00,VWS V14.01,2013-02-21 11:53:00,
2013-02-21 06:55:00,23.6,10.2,29.80,NW,312,0.0,2.0,56,0.00,,SKC,0.00,VWS V14.01,2013-02-21 11:55:00,
2013-02-21 06:56:00,23.6,10.2,29.80,NW,312,0.0,0.0,56,0.00,,SKC,0.00,VWS V14.01,2013-02-21 11:56:00,
2013-02-21 06:57:00,23.6,10.2,29.80,WNW,301,0.0,0.0,56,0.00,,SKC,0.00,VWS V14.01,2013-02-21 11:57:00,
2013-02-21 06:58:00,23.6,10.2,29.80,WNW,301,0.0,0.0,56,0.00,,SKC,0.00,VWS V14.01,2013-02-21 11:58:00,
2013-02-21 06:59:00,23.6,10.2,29.80,WNW,301,0.0,0.0,56,0.00,,SKC,0.00,VWS V14.01,2013-02-21 11:59:00,
2013-02-21 07:00:00,23.6,10.2,29.80,WNW,301,0.0,0.0,56,0.00,,SKC,0.00,VWS V14.01,2013-02-21 12:00:00,
2013-02-21 07:01:00,23.6,10.2,29.80,WNW,301,0.0,0.0,56,0.00,,SKC,0.00,VWS V14.01,2013-02-21 12:01:00,
2013-02-21 07:02:00,23.6,10.2,29.80,NW,304,0.0,0.0,56,0.00,,SKC,0.00,VWS V14.01,2013-02-21 12:02:00,
2013-02-21 07:03:00,23.6,10.2,29.80,NW,304,0.0,0.0,56,0.00,,SKC,0.00,VWS V14.01,2013-02-21 12:03:00,
2013-02-21 07:04:00,23.6,10.2,29.80,SSE,161,0.0,0.0,56,0.00,,SKC,0.00,VWS V14.01,2013-02-21 12:04:00,
2013-02-21 07:05:00,23.6,10.2,29.80,SSE,161,0.0,0.0,56,0.00,,SKC,0.00,VWS V14.01,2013-02-21 12:05:00,
2013-02-21 07:06:00,23.6,10.2,29.80,NW,315,2.0,3.0,56,0.00,,SKC,0.00,VWS V14.01,2013-02-21 12:06:00,
2013-02-21 07:07:00,23.6,10.2,29.80,NW,315,2.0,3.0,56,0.00,,SKC,0.00,VWS V14.01,2013-02-21 12:07:00,
2013-02-21 07:08:00,23.6,10.2,29.80,NW,315,2.0,3.0,56,0.00,,SKC,0.00,VWS V14.01,2013-02-21 12:08:00,
2013-02-21 07:09:00,23.6,10.2,29.80,WNW,285,0.0,0.0,56,0.00,,SKC,0.00,VWS V14.01,2013-02-21 12:09:00,
2013-02-21 07:10:00,23.6,10.2,29.80,WNW,285,0.0,3.0,56,0.00,,SKC,0.00,VWS V14.01,2013-02-21 12:10:00,
2013-02-21 07:11:00,23.6,11.0,29.80,WNW,302,1.0,1.0,58,0.00,,SKC,0.00,VWS V14.01,2013-02-21 12:11:00,
2013-02-21 07:12:00,23.6,11.0,29.80,WNW,302,1.0,1.0,58,0.00,,SKC,0.00,VWS V14.01,2013-02-21 12:12:00,
2013-02-21 07:14:00,23.6,11.0,29.80,WNW,302,1.0,1.0,58,0.00,,SKC,0.00,VWS V14.01,2013-02-21 12:14:00,
2013-02-21 07:15:00,23.5,10.9,29.80,NW,305,0.0,1.0,58,0.00,,SKC,0.00,VWS V14.01,2013-02-21 12:15:00,
2013-02-21 07:17:00,23.5,10.9,29.80,NW,304,1.0,1.0,58,0.00,,SKC,0.00,VWS V14.01,2013-02-21 12:17:00,
2013-02-21 07:18:00,23.5,10.9,29.80,WNW,291,0.0,2.0,58,0.00,,SKC,0.00,VWS V14.01,2013-02-21 12:18:00,
2013-02-21 07:19:00,23.5,10.9,29.80,NW,306,0.0,2.0,58,0.00,,SKC,0.00,VWS V14.01,2013-02-21 12:19:00,
2013-02-21 07:20:00,23.5,10.9,29.80,NW,311,1.0,1.0,58,0.00,,SKC,0.00,VWS V14.01,2013-02-21 12:20:00,
2013-02-21 07:22:00,23.5,10.9,29.80,WNW,299,0.0,1.0,58,0.00,,SKC,0.00,VWS V14.01,2013-02-21 12:22:00,
2013-02-21 07:23:00,23.5,10.9,29.80,WNW,299,0.0,1.0,58,0.00,,SKC,0.00,VWS V14.01,2013-02-21 12:23:00,
2013-02-21 07:24:00,23.5,10.9,29.80,WNW,298,0.0,1.0,58,0.00,,SKC,0.00,VWS V14.01,2013-02-21 12:24:00,
2013-02-21 07:25:00,23.5,10.9,29.80,WNW,298,0.0,0.0,58,0.00,,SKC,0.00,VWS V14.01,2013-02-21 12:25:00,
2013-02-21 07:27:00,23.5,10.9,29.80,NW,306,1.0,1.0,58,0.00,,SKC,0.00,VWS V14.01,2013-02-21 12:27:00,
2013-02-21 07:28:00,23.5,10.9,29.80,NW,306,1.0,1.0,58,0.00,,SKC,0.00,VWS V14.01,2013-02-21 12:28:00,
2013-02-21 07:29:00,23.6,11.0,29.81,WNW,302,0.0,0.0,58,0.00,,SKC,0.00,VWS V14.01,2013-02-21 12:29:00,
2013-02-21 07:30:00,23.6,11.0,29.81,WNW,302,0.0,1.0,58,0.00,,SKC,0.00,VWS V14.01,2013-02-21 12:30:00,
2013-02-21 07:31:00,23.6,11.0,29.81,WNW,302,0.0,0.0,58,0.00,,SKC,0.00,VWS V14.01,2013-02-21 12:31:00,
2013-02-21 07:32:00,23.6,11.0,29.81,WNW,302,0.0,0.0,58,0.00,,SKC,0.00,VWS V14.01,2013-02-21 12:32:00,
2013-02-21 07:33:00,23.6,11.0,29.81,South,172,0.0,0.0,58,0.00,,SKC,0.00,VWS V14.01,2013-02-21 12:33:00,
2013-02-21 07:35:00,23.6,10.6,29.81,SSE,168,0.0,0.0,57,0.00,,SKC,0.00,VWS V14.01,2013-02-21 12:35:00,
2013-02-21 07:37:00,23.6,10.6,29.81,SSE,167,0.0,0.0,57,0.00,,SKC,0.00,VWS V14.01,2013-02-21 12:37:00,
2013-02-21 07:38:00,23.6,10.6,29.81,SSE,167,0.0,0.0,57,0.00,,SKC,0.00,VWS V14.01,2013-02-21 12:38:00,
2013-02-21 07:40:00,23.6,10.6,29.81,NW,326,0.0,0.0,57,0.00,,SKC,0.00,VWS V14.01,2013-02-21 12:40:00,
2013-02-21 07:42:00,23.6,10.6,29.81,NW,320,0.0,1.0,57,0.00,,SKC,0.00,VWS V14.01,2013-02-21 12:42:00,
2013-02-21 07:44:00,23.6,10.6,29.81,NW,320,0.0,1.0,57,0.00,,SKC,0.00,VWS V14.01,2013-02-21 12:44:00,
2013-02-21 07:45:00,23.8,10.8,29.81,NW,326,0.0,3.0,57,0.00,,SKC,0.00,VWS V14.01,2013-02-21 12:45:00,
2013-02-21 07:47:00,23.8,10.8,29.81,NW,323,0.0,3.0,57,0.00,,SKC,0.00,VWS V14.01,2013-02-21 12:47:00,
2013-02-21 07:49:00,23.8,10.8,29.81,NNW,346,0.0,3.0,57,0.00,,SKC,0.00,VWS V14.01,2013-02-21 12:49:00,
2013-02-21 07:50:00,23.9,10.9,29.81,NW,315,1.0,1.0,57,0.00,,SKC,0.00,VWS V14.01,2013-02-21 12:50:00,
2013-02-21 07:52:00,24.1,11.1,29.81,NNW,335,0.0,3.0,57,0.00,,SKC,0.00,VWS V14.01,2013-02-21 12:52:00,
2013-02-21 07:54:00,24.1,11.1,29.81,NW,325,1.0,1.0,57,0.00,,SKC,0.00,VWS V14.01,2013-02-21 12:54:00,
2013-02-21 07:55:00,24.1,11.1,29.81,NW,325,1.0,3.0,57,0.00,,SKC,0.00,VWS V14.01,2013-02-21 12:55:00,
2013-02-21 07:56:00,24.1,10.7,29.81,NW,325,0.0,1.0,56,0.00,,SKC,0.00,VWS V14.01,2013-02-21 12:56:00,
2013-02-21 07:57:00,24.1,10.7,29.81,NW,325,0.0,1.0,56,0.00,,SKC,0.00,VWS V14.01,2013-02-21 12:57:00,
2013-02-21 07:58:00,24.1,10.7,29.81,NW,325,0.0,1.0,56,0.00,,SKC,0.00,VWS V14.01,2013-02-21 12:58:00,
2013-02-21 07:59:00,24.1,10.7,29.80,NW,315,0.0,0.0,56,0.00,,SKC,0.00,VWS V14.01,2013-02-21 12:59:00,
2013-02-21 08:00:00,24.1,10.7,29.80,NW,315,0.0,1.0,56,0.00,,SKC,0.00,VWS V14.01,2013-02-21 13:00:00,
2013-02-21 08:01:00,24.2,10.8,29.80,NNW,328,5.0,5.0,56,0.00,,SKC,0.00,VWS V14.01,2013-02-21 13:01:00,
2013-02-21 08:03:00,24.2,10.8,29.80,NW,316,1.0,5.0,56,0.00,,SKC,0.00,VWS V14.01,2013-02-21 13:03:00,
2013-02-21 08:04:00,24.2,10.8,29.80,NNW,343,0.0,1.0,56,0.00,,SKC,0.00,VWS V14.01,2013-02-21 13:04:00,
2013-02-21 08:05:00,24.2,10.8,29.80,NW,316,1.0,5.0,56,0.00,,SKC,0.00,VWS V14.01,2013-02-21 13:05:00,
2013-02-21 08:07:00,24.2,10.8,29.80,NNW,340,0.0,1.0,56,0.00,,SKC,0.00,VWS V14.01,2013-02-21 13:07:00,
2013-02-21 08:08:00,24.4,11.0,29.80,NNW,342,0.0,1.0,56,0.00,,SKC,0.00,VWS V14.01,2013-02-21 13:08:00,
2013-02-21 08:09:00,24.4,11.0,29.80,NNW,342,0.0,1.0,56,0.00,,SKC,0.00,VWS V14.01,2013-02-21 13:09:00,
2013-02-21 08:10:00,24.4,11.0,29.80,NNW,342,0.0,0.0,56,0.00,,SKC,0.00,VWS V14.01,2013-02-21 13:10:00,
2013-02-21 08:12:00,24.4,11.0,29.80,NNW,335,0.0,0.0,56,0.00,,SKC,0.00,VWS V14.01,2013-02-21 13:12:00,
2013-02-21 08:13:00,24.4,11.0,29.80,NW,322,0.0,0.0,56,0.00,,SKC,0.00,VWS V14.01,2013-02-21 13:13:00,
2013-02-21 08:14:00,24.4,11.0,29.80,NW,322,0.0,0.0,56,0.00,,SKC,0.00,VWS V14.01,2013-02-21 13:14:00,
2013-02-21 08:15:00,24.4,11.0,29.80,NW,322,0.0,0.0,56,0.00,,SKC,0.00,VWS V14.01,2013-02-21 13:15:00,
2013-02-21 08:17:00,24.4,11.0,29.80,NNW,342,1.0,11.0,56,0.00,,SKC,0.00,VWS V14.01,2013-02-21 13:17:00,
2013-02-21 08:19:00,24.4,11.0,29.80,NW,309,2.0,11.0,56,0.00,,SKC,0.00,VWS V14.01,2013-02-21 13:19:00,
2013-02-21 08:20:00,24.4,11.0,29.80,NW,320,0.0,6.0,56,0.00,,SKC,0.00,VWS V14.01,2013-02-21 13:20:00,
2013-02-21 08:23:00,24.4,11.0,29.80,NW,320,0.0,6.0,56,0.00,,SKC,0.00,VWS V14.01,2013-02-21 13:23:00,
2013-02-21 08:24:00,24.4,11.0,29.80,NW,325,0.0,0.0,56,0.00,,SKC,0.00,VWS V14.01,2013-02-21 13:24:00,
2013-02-21 08:25:00,24.4,11.0,29.80,NW,325,0.0,0.0,56,0.00,,SKC,0.00,VWS V14.01,2013-02-21 13:25:00,
2013-02-21 08:29:00,24.4,11.0,29.80,NW,325,0.0,0.0,56,0.00,,SKC,0.00,VWS V14.01,2013-02-21 13:29:00,
2013-02-21 08:30:00,24.4,11.0,29.80,NNW,332,2.0,2.0,56,0.00,,SKC,0.00,VWS V14.01,2013-02-21 13:30:00,
2013-02-21 08:34:00,24.8,11.3,29.80,SW,219,0.0,2.0,56,0.00,,SKC,0.00,VWS V14.01,2013-02-21 13:34:00,
2013-02-21 08:35:00,24.8,11.3,29.80,North,354,0.0,1.0,56,0.00,,SKC,0.00,VWS V14.01,2013-02-21 13:35:00,
2013-02-21 08:37:00,25.0,11.5,29.80,North,353,0.0,1.0,56,0.00,,SKC,0.00,VWS V14.01,2013-02-21 13:37:00,
2013-02-21 08:39:00,25.0,11.5,29.80,WNW,288,0.0,1.0,56,0.00,,SKC,0.00,VWS V14.01,2013-02-21 13:39:00,
2013-02-21 08:40:00,25.0,11.5,29.80,NNW,335,0.0,0.0,56,0.00,,SKC,0.00,VWS V14.01,2013-02-21 13:40:00,
2013-02-21 08:41:00,25.0,11.5,29.80,NNW,335,0.0,0.0,56,0.00,,SKC,0.00,VWS V14.01,2013-02-21 13:41:00,
2013-02-21 08:43:00,25.0,11.5,29.80,WNW,294,0.0,0.0,56,0.00,,SKC,0.00,VWS V14.01,2013-02-21 13:43:00,
2013-02-21 08:44:00,25.1,11.6,29.79,NNW,343,3.0,3.0,56,0.00,,SKC,0.00,VWS V14.01,2013-02-21 13:44:00,
2013-02-21 08:45:00,25.1,11.6,29.79,NNW,343,3.0,3.0,56,0.00,,SKC,0.00,VWS V14.01,2013-02-21 13:45:00,
2013-02-21 08:46:00,25.1,11.6,29.79,NW,309,1.0,4.0,56,0.00,,SKC,0.00,VWS V14.01,2013-02-21 13:46:00,
2013-02-21 08:48:00,25.1,11.6,29.79,West,271,2.0,4.0,56,0.00,,SKC,0.00,VWS V14.01,2013-02-21 13:48:00,
2013-02-21 08:49:00,25.1,11.6,29.79,West,271,2.0,2.0,56,0.00,,SKC,0.00,VWS V14.01,2013-02-21 13:49:00,
2013-02-21 08:50:00,25.1,11.6,29.79,West,271,2.0,4.0,56,0.00,,SKC,0.00,VWS V14.01,2013-02-21 13:50:00,
2013-02-21 08:51:00,25.1,11.6,29.79,NW,322,3.0,3.0,56,0.00,,SKC,0.00,VWS V14.01,2013-02-21 13:51:00,
2013-02-21 08:52:00,25.1,11.6,29.79,WNW,296,0.0,3.0,56,0.00,,SKC,0.00,VWS V14.01,2013-02-21 13:52:00,
2013-02-21 08:53:00,25.1,11.6,29.79,WNW,296,0.0,3.0,56,0.00,,SKC,0.00,VWS V14.01,2013-02-21 13:53:00,
2013-02-21 08:55:00,25.1,11.6,29.79,WNW,296,0.0,0.0,56,0.00,,SKC,0.00,VWS V14.01,2013-02-21 13:55:00,
2013-02-21 08:56:00,25.1,11.6,29.79,WNW,296,0.0,0.0,56,0.00,,SKC,0.00,VWS V14.01,2013-02-21 13:56:00,
2013-02-21 08:58:00,25.1,11.6,29.79,NNW,340,0.0,0.0,56,0.00,,SKC,0.00,VWS V14.01,2013-02-21 13:58:00,
2013-02-21 09:00:00,25.1,11.6,29.79,North,352,2.0,2.0,56,0.00,,SKC,0.00,VWS V14.01,2013-02-21 14:00:00,
2013-02-21 09:01:00,25.1,11.6,29.79,North,352,2.0,2.0,56,0.00,,SKC,0.00,VWS V14.01,2013-02-21 14:01:00,
2013-02-21 09:03:00,26.1,12.6,29.79,WNW,294,6.0,6.0,56,0.00,,SKC,0.00,VWS V14.01,2013-02-21 14:03:00,
2013-02-21 09:05:00,26.1,12.6,29.79,NW,326,3.0,6.0,56,0.00,,SKC,0.00,VWS V14.01,2013-02-21 14:05:00,
2013-02-21 09:07:00,26.1,11.3,29.79,NW,326,0.0,6.0,53,0.00,,SKC,0.00,VWS V14.01,2013-02-21 14:07:00,
2013-02-21 09:08:00,26.6,11.8,29.79,NNW,340,3.0,6.0,53,0.00,,SKC,0.00,VWS V14.01,2013-02-21 14:08:00,
2013-02-21 09:09:00,26.6,11.8,29.79,NNW,340,3.0,6.0,53,0.00,,SKC,0.00,VWS V14.01,2013-02-21 14:09:00,
2013-02-21 09:10:00,26.6,11.8,29.79,NNW,340,3.0,6.0,53,0.00,,SKC,0.00,VWS V14.01,2013-02-21 14:10:00,
2013-02-21 09:11:00,26.6,11.8,29.79,NNW,332,6.0,6.0,53,0.00,,SKC,0.00,VWS V14.01,2013-02-21 14:11:00,
2013-02-21 09:13:00,26.6,11.8,29.79,North,357,1.0,6.0,53,0.00,,SKC,0.00,VWS V14.01,2013-02-21 14:13:00,
2013-02-21 09:14:00,26.6,11.8,29.79,NNW,332,6.0,6.0,53,0.00,,SKC,0.00,VWS V14.01,2013-02-21 14:14:00,
2013-02-21 09:15:00,26.6,11.8,29.79,NNW,328,3.0,6.0,53,0.00,,SKC,0.00,VWS V14.01,2013-02-21 14:15:00,
2013-02-21 09:16:00,26.6,11.8,29.79,WNW,288,1.0,5.0,53,0.00,,SKC,0.00,VWS V14.01,2013-02-21 14:16:00,
2013-02-21 09:18:00,26.6,11.8,29.79,WSW,250,0.0,5.0,53,0.00,,SKC,0.00,VWS V14.01,2013-02-21 14:18:00,
2013-02-21 09:19:00,26.6,11.8,29.79,WSW,250,0.0,5.0,53,0.00,,SKC,0.00,VWS V14.01,2013-02-21 14:19:00,
2013-02-21 09:20:00,26.6,11.8,29.79,WSW,250,0.0,0.0,53,0.00,,SKC,0.00,VWS V14.01,2013-02-21 14:20:00,
2013-02-21 09:21:00,26.7,11.9,29.79,NW,306,7.0,7.0,53,0.00,,SKC,0.00,VWS V14.01,2013-02-21 14:21:00,
2013-02-21 09:24:00,26.7,11.0,29.79,NW,318,2.0,7.0,51,0.00,,SKC,0.00,VWS V14.01,2013-02-21 14:24:00,
2013-02-21 09:25:00,26.6,10.9,29.79,SSE,157,6.0,6.0,51,0.00,,SKC,0.00,VWS V14.01,2013-02-21 14:25:00,
2013-02-21 09:27:00,26.6,11.4,29.79,NW,325,2.0,6.0,52,0.00,,SKC,0.00,VWS V14.01,2013-02-21 14:27:00,
2013-02-21 09:29:00,26.9,11.6,29.78,NW,315,0.0,6.0,52,0.00,,SKC,0.00,VWS V14.01,2013-02-21 14:29:00,
2013-02-21 09:30:00,26.9,11.6,29.78,NW,315,0.0,6.0,52,0.00,,SKC,0.00,VWS V14.01,2013-02-21 14:30:00,
2013-02-21 09:31:00,27.2,12.4,29.78,NNW,336,0.0,3.0,53,0.00,,SKC,0.00,VWS V14.01,2013-02-21 14:31:00,
2013-02-21 09:32:00,27.2,12.4,29.78,NW,319,0.0,3.0,53,0.00,,SKC,0.00,VWS V14.01,2013-02-21 14:32:00,
2013-02-21 09:34:00,27.5,12.6,29.78,NW,326,0.0,3.0,53,0.00,,SKC,0.00,VWS V14.01,2013-02-21 14:34:00,
2013-02-21 09:35:00,27.5,12.6,29.78,NNW,336,1.0,1.0,53,0.00,,SKC,0.00,VWS V14.01,2013-02-21 14:35:00,
2013-02-21 09:36:00,27.6,11.4,29.78,NNW,330,0.0,7.0,50,0.00,,SKC,0.00,VWS V14.01,2013-02-21 14:36:00,
2013-02-21 09:37:00,27.6,11.4,29.78,NNW,329,0.0,7.0,50,0.00,,SKC,0.00,VWS V14.01,2013-02-21 14:37:00,
2013-02-21 09:39:00,27.6,11.4,29.78,NNW,329,0.0,0.0,50,0.00,,SKC,0.00,VWS V14.01,2013-02-21 14:39:00,
2013-02-21 09:40:00,27.6,11.4,29.78,NNW,339,1.0,1.0,50,0.00,,SKC,0.00,VWS V14.01,2013-02-21 14:40:00,
2013-02-21 09:41:00,27.6,11.4,29.78,WSW,240,0.0,2.0,50,0.00,,SKC,0.00,VWS V14.01,2013-02-21 14:41:00,
2013-02-21 09:42:00,27.5,11.3,29.78,NW,312,5.0,5.0,50,0.00,,SKC,0.00,VWS V14.01,2013-02-21 14:42:00,
2013-02-21 09:45:00,27.5,11.3,29.79,NNW,329,0.0,3.0,50,0.00,,SKC,0.00,VWS V14.01,2013-02-21 14:45:00,
2013-02-21 09:46:00,27.5,11.3,29.79,NNW,329,0.0,3.0,50,0.00,,SKC,0.00,VWS V14.01,2013-02-21 14:46:00,
2013-02-21 09:48:00,27.2,11.0,29.79,NNW,343,5.0,5.0,50,0.00,,SKC,0.00,VWS V14.01,2013-02-21 14:48:00,
2013-02-21 09:50:00,27.2,11.0,29.79,North,353,2.0,5.0,50,0.00,,SKC,0.00,VWS V14.01,2013-02-21 14:50:00,
2013-02-21 09:51:00,27.3,11.1,29.79,NNW,329,5.0,5.0,50,0.00,,SKC,0.00,VWS V14.01,2013-02-21 14:51:00,
2013-02-21 09:52:00,27.3,11.1,29.79,NNW,329,5.0,5.0,50,0.00,,SKC,0.00,VWS V14.01,2013-02-21 14:52:00,
2013-02-21 09:53:00,27.3,11.1,29.79,NNW,337,0.0,5.0,50,0.00,,SKC,0.00,VWS V14.01,2013-02-21 14:53:00,
2013-02-21 09:55:00,27.3,11.1,29.79,NNW,337,0.0,5.0,50,0.00,,SKC,0.00,VWS V14.01,2013-02-21 14:55:00,
2013-02-21 09:56:00,27.8,11.6,29.79,NW,320,2.0,3.0,50,0.00,,SKC,0.00,VWS V14.01,2013-02-21 14:56:00,
2013-02-21 09:57:00,27.9,11.7,29.79,NW,319,0.0,3.0,50,0.00,,SKC,0.00,VWS V14.01,2013-02-21 14:57:00,
2013-02-21 09:58:00,27.9,11.2,29.79,NW,322,0.0,5.0,49,0.00,,SKC,0.00,VWS V14.01,2013-02-21 14:58:00,
2013-02-21 10:00:00,27.9,11.2,29.78,NW,312,2.0,5.0,49,0.00,,SKC,0.00,VWS V14.01,2013-02-21 15:00:00,
2013-02-21 10:01:00,27.9,11.2,29.78,West,267,2.0,5.0,49,0.00,,SKC,0.00,VWS V14.01,2013-02-21 15:01:00,
2013-02-21 10:02:00,28.1,11.4,29.78,NNW,347,1.0,5.0,49,0.00,,SKC,0.00,VWS V14.01,2013-02-21 15:02:00,
2013-02-21 10:03:00,28.1,11.4,29.78,NW,325,2.0,5.0,49,0.00,,SKC,0.00,VWS V14.01,2013-02-21 15:03:00,
2013-02-21 10:04:00,28.2,11.5,29.78,WNW,299,0.0,5.0,49,0.00,,SKC,0.00,VWS V14.01,2013-02-21 15:04:00,
2013-02-21 10:05:00,28.2,11.5,29.78,NW,313,0.0,5.0,49,0.00,,SKC,0.00,VWS V14.01,2013-02-21 15:05:00,
2013-02-21 10:06:00,28.4,10.8,29.78,NW,325,2.0,10.0,47,0.00,,SKC,0.00,VWS V14.01,2013-02-21 15:06:00,
2013-02-21 10:07:00,28.4,10.8,29.78,NNW,330,2.0,10.0,47,0.00,,SKC,0.00,VWS V14.01,2013-02-21 15:07:00,
2013-02-21 10:08:00,28.4,10.8,29.78,NNW,330,2.0,10.0,47,0.00,,SKC,0.00,VWS V14.01,2013-02-21 15:08:00,
2013-02-21 10:09:00,28.4,10.8,29.78,NNW,330,2.0,10.0,47,0.00,,SKC,0.00,VWS V14.01,2013-02-21 15:09:00,
2013-02-21 10:10:00,28.4,10.8,29.78,NNW,330,2.0,10.0,47,0.00,,SKC,0.00,VWS V14.01,2013-02-21 15:10:00,
2013-02-21 10:11:00,28.5,10.9,29.78,West,280,0.0,5.0,47,0.00,,SKC,0.00,VWS V14.01,2013-02-21 15:11:00,
2013-02-21 10:12:00,28.7,11.0,29.78,NNW,330,0.0,5.0,47,0.00,,SKC,0.00,VWS V14.01,2013-02-21 15:12:00,
2013-02-21 10:13:00,28.7,11.5,29.78,NNW,330,1.0,5.0,48,0.00,,SKC,0.00,VWS V14.01,2013-02-21 15:13:00,
2013-02-21 10:14:00,28.8,12.1,29.78,NW,320,1.0,5.0,49,0.00,,SKC,0.00,VWS V14.01,2013-02-21 15:14:00,
2013-02-21 10:15:00,28.8,12.1,29.78,SSE,158,2.0,5.0,49,0.00,,SKC,0.00,VWS V14.01,2013-02-21 15:15:00,
2013-02-21 10:17:00,28.8,12.1,29.78,SW,229,1.0,5.0,49,0.00,,SKC,0.00,VWS V14.01,2013-02-21 15:17:00,
2013-02-21 10:18:00,28.8,12.1,29.78,NW,313,5.0,6.0,49,0.00,,SKC,0.00,VWS V14.01,2013-02-21 15:18:00,
2013-02-21 10:19:00,28.8,12.1,29.78,NNW,343,0.0,6.0,49,0.00,,SKC,0.00,VWS V14.01,2013-02-21 15:19:00,
2013-02-21 10:20:00,28.8,12.1,29.78,NNW,343,0.0,6.0,49,0.00,,SKC,0.00,VWS V14.01,2013-02-21 15:20:00,
2013-02-21 10:22:00,28.7,11.0,29.78,NNW,339,8.0,14.0,47,0.00,,SKC,0.00,VWS V14.01,2013-02-21 15:22:00,
2013-02-21 10:23:00,28.5,10.9,29.78,NNW,330,2.0,14.0,47,0.00,,SKC,0.00,VWS V14.01,2013-02-21 15:23:00,
2013-02-21 10:24:00,28.5,11.3,29.78,WNW,289,3.0,14.0,48,0.00,,SKC,0.00,VWS V14.01,2013-02-21 15:24:00,
2013-02-21 10:25:00,28.5,11.3,29.78,WNW,289,3.0,14.0,48,0.00,,SKC,0.00,VWS V14.01,2013-02-21 15:25:00,
2013-02-21 10:27:00,28.4,10.8,29.78,WNW,296,0.0,3.0,47,0.00,,SKC,0.00,VWS V14.01,2013-02-21 15:27:00,
2013-02-21 10:28:00,28.4,10.8,29.79,NNW,329,0.0,5.0,47,0.00,,SKC,0.00,VWS V14.01,2013-02-21 15:28:00,
2013-02-21 10:29:00,28.4,10.8,29.79,North,357,6.0,6.0,47,0.00,,SKC,0.00,VWS V14.01,2013-02-21 15:29:00,
2013-02-21 10:30:00,28.4,10.8,29.79,North,357,6.0,6.0,47,0.00,,SKC,0.00,VWS V14.01,2013-02-21 15:30:00,
2013-02-21 10:32:00,28.4,11.2,29.79,NNW,336,0.0,10.0,48,0.00,,SKC,0.00,VWS V14.01,2013-02-21 15:32:00,
2013-02-21 10:33:00,28.4,11.7,29.79,NW,308,0.0,10.0,49,0.00,,SKC,0.00,VWS V14.01,2013-02-21 15:33:00,
2013-02-21 10:34:00,28.4,11.7,29.79,NNW,328,1.0,1.0,49,0.00,,SKC,0.00,VWS V14.01,2013-02-21 15:34:00,
2013-02-21 10:35:00,28.4,11.7,29.79,NNW,336,0.0,1.0,49,0.00,,SKC,0.00,VWS V14.01,2013-02-21 15:35:00,
2013-02-21 10:37:00,28.4,11.7,29.79,NNW,343,2.0,7.0,49,0.00,,SKC,0.00,VWS V14.01,2013-02-21 15:37:00,
2013-02-21 10:38:00,28.4,10.3,29.79,NNW,342,6.0,7.0,46,0.00,,SKC,0.00,VWS V14.01,2013-02-21 15:38:00,
2013-02-21 10:39:00,28.8,10.6,29.79,NNW,343,0.0,0.0,46,0.00,,SKC,0.00,VWS V14.01,2013-02-21 15:39:00,
2013-02-21 10:40:00,28.8,10.6,29.79,NNW,343,0.0,0.0,46,0.00,,SKC,0.00,VWS V14.01,2013-02-21 15:40:00,
2013-02-21 10:43:00,29.0,10.8,29.79,NW,325,1.0,2.0,46,0.00,,SKC,0.00,VWS V14.01,2013-02-21 15:43:00,
2013-02-21 10:44:00,29.0,10.8,29.78,NW,325,1.0,2.0,46,0.00,,SKC,0.00,VWS V14.01,2013-02-21 15:44:00,
2013-02-21 10:45:00,29.0,10.8,29.78,NW,325,1.0,1.0,46,0.00,,SKC,0.00,VWS V14.01,2013-02-21 15:45:00,
2013-02-21 10:48:00,29.0,10.8,29.78,NNW,343,0.0,1.0,46,0.00,,SKC,0.00,VWS V14.01,2013-02-21 15:48:00,
2013-02-21 10:49:00,29.0,10.8,29.78,NNW,328,0.0,1.0,46,0.00,,SKC,0.00,VWS V14.01,2013-02-21 15:49:00,
2013-02-21 10:50:00,29.5,11.3,29.78,NW,319,1.0,7.0,46,0.00,,SKC,0.00,VWS V14.01,2013-02-21 15:50:00,
2013-02-21 10:53:00,29.5,11.3,29.78,NNW,329,6.0,7.0,46,0.00,,SKC,0.00,VWS V14.01,2013-02-21 15:53:00,
2013-02-21 10:54:00,29.5,11.3,29.78,West,272,5.0,7.0,46,0.00,,SKC,0.00,VWS V14.01,2013-02-21 15:54:00,
2013-02-21 10:55:00,29.5,11.3,29.78,West,272,5.0,5.0,46,0.00,,SKC,0.00,VWS V14.01,2013-02-21 15:55:00,
2013-02-21 10:56:00,29.3,11.1,29.78,NNW,328,0.0,5.0,46,0.00,,SKC,0.00,VWS V14.01,2013-02-21 15:56:00,
2013-02-21 10:58:00,29.3,11.1,29.79,NNW,329,0.0,6.0,46,0.00,,SKC,0.00,VWS V14.01,2013-02-21 15:58:00,
2013-02-21 10:59:00,29.3,11.1,29.79,NW,326,3.0,6.0,46,0.00,,SKC,0.00,VWS V14.01,2013-02-21 15:59:00,
2013-02-21 11:00:00,29.3,11.1,29.79,NW,326,3.0,6.0,46,0.00,,SKC,0.00,VWS V14.01,2013-02-21 16:00:00,
2013-02-21 11:01:00,29.3,11.1,29.79,NNW,335,3.0,3.0,46,0.00,,SKC,0.00,VWS V14.01,2013-02-21 16:01:00,
2013-02-21 11:03:00,29.3,11.1,29.79,NNW,335,3.0,3.0,46,0.00,,SKC,0.00,VWS V14.01,2013-02-21 16:03:00,
2013-02-21 11:05:00,29.3,11.1,29.79,NNW,330,2.0,3.0,46,0.00,,SKC,0.00,VWS V14.01,2013-02-21 16:05:00,
2013-02-21 11:06:00,29.3,11.1,29.79,WNW,284,0.0,3.0,46,0.00,,SKC,0.00,VWS V14.01,2013-02-21 16:06:00,
2013-02-21 11:07:00,29.3,11.1,29.79,NNW,339,0.0,3.0,46,0.00,,SKC,0.00,VWS V14.01,2013-02-21 16:07:00,
2013-02-21 11:09:00,29.4,11.2,29.79,NNW,337,0.0,3.0,46,0.00,,SKC,0.00,VWS V14.01,2013-02-21 16:09:00,
2013-02-21 11:10:00,29.4,11.2,29.79,NNW,339,0.0,0.0,46,0.00,,SKC,0.00,VWS V14.01,2013-02-21 16:10:00,
2013-02-21 11:12:00,29.5,11.3,29.79,NW,323,0.0,2.0,46,0.00,,SKC,0.00,VWS V14.01,2013-02-21 16:12:00,
2013-02-21 11:14:00,29.5,11.3,29.78,North,350,5.0,5.0,46,0.00,,SKC,0.00,VWS V14.01,2013-02-21 16:14:00,
2013-02-21 11:15:00,29.8,11.6,29.78,West,274,0.0,0.0,46,0.00,,SKC,0.00,VWS V14.01,2013-02-21 16:15:00,
2013-02-21 11:17:00,29.8,11.6,29.78,SSW,212,0.0,8.0,46,0.00,,SKC,0.00,VWS V14.01,2013-02-21 16:17:00,
2013-02-21 11:18:00,30.0,11.7,29.78,North,357,0.0,8.0,46,0.00,,SKC,0.00,VWS V14.01,2013-02-21 16:18:00,
2013-02-21 11:19:00,30.1,11.8,29.78,NNW,328,0.0,8.0,46,0.00,,SKC,0.00,VWS V14.01,2013-02-21 16:19:00,
2013-02-21 11:20:00,30.1,11.8,29.78,NNW,339,0.0,1.0,46,0.00,,SKC,0.00,VWS V14.01,2013-02-21 16:20:00,
2013-02-21 11:22:00,30.4,12.1,29.78,South,178,11.0,11.0,46,0.00,,SKC,0.00,VWS V14.01,2013-02-21 16:22:00,
2013-02-21 11:23:00,30.4,11.6,29.78,NNW,346,3.0,11.0,45,0.00,,SKC,0.00,VWS V14.01,2013-02-21 16:23:00,
2013-02-21 11:24:00,30.4,11.6,29.78,NNW,337,0.0,11.0,45,0.00,,SKC,0.00,VWS V14.01,2013-02-21 16:24:00,
2013-02-21 11:25:00,30.4,11.6,29.78,NNW,337,0.0,11.0,45,0.00,,SKC,0.00,VWS V14.01,2013-02-21 16:25:00,
2013-02-21 11:26:00,30.4,11.1,29.78,North,356,2.0,5.0,44,0.00,,SKC,0.00,VWS V14.01,2013-02-21 16:26:00,
2013-02-21 11:28:00,30.1,10.8,29.78,NNW,333,4.0,13.0,44,0.00,,SKC,0.00,VWS V14.01,2013-02-21 16:28:00,
2013-02-21 11:29:00,30.0,10.7,29.78,NNW,333,0.0,13.0,44,0.00,,SKC,0.00,VWS V14.01,2013-02-21 16:29:00,
2013-02-21 11:30:00,30.0,10.7,29.78,NNW,337,3.0,13.0,44,0.00,,SKC,0.00,VWS V14.01,2013-02-21 16:30:00,
2013-02-21 11:31:00,29.8,10.6,29.78,North,352,0.0,6.0,44,0.00,,SKC,0.00,VWS V14.01,2013-02-21 16:31:00,
2013-02-21 11:33:00,29.5,10.8,29.78,NW,322,0.0,9.0,45,0.00,,SKC,0.00,VWS V14.01,2013-02-21 16:33:00,
2013-02-21 11:34:00,29.5,10.8,29.78,North,353,1.0,9.0,45,0.00,,SKC,0.00,VWS V14.01,2013-02-21 16:34:00,
2013-02-21 11:35:00,29.5,10.8,29.78,North,352,2.0,9.0,45,0.00,,SKC,0.00,VWS V14.01,2013-02-21 16:35:00,
2013-02-21 11:36:00,29.7,11.5,29.78,NNW,340,3.0,3.0,46,0.00,,SKC,0.00,VWS V14.01,2013-02-21 16:36:00,
2013-02-21 11:38:00,29.5,11.3,29.78,NNW,343,0.0,14.0,46,0.00,,SKC,0.00,VWS V14.01,2013-02-21 16:38:00,
2013-02-21 11:39:00,29.5,11.3,29.78,NNW,343,0.0,14.0,46,0.00,,SKC,0.00,VWS V14.01,2013-02-21 16:39:00,
2013-02-21 11:40:00,29.5,11.3,29.78,North,353,1.0,14.0,46,0.00,,SKC,0.00,VWS V14.01,2013-02-21 16:40:00,
2013-02-21 11:41:00,29.5,11.3,29.78,NNW,346,6.0,8.0,46,0.00,,SKC,0.00,VWS V14.01,2013-02-21 16:41:00,
2013-02-21 11:43:00,29.4,10.2,29.78,SSE,160,6.0,12.0,44,0.00,,SKC,0.00,VWS V14.01,2013-02-21 16:43:00,
2013-02-21 11:44:00,29.4,10.2,29.78,NW,323,2.0,12.0,44,0.00,,SKC,0.00,VWS V14.01,2013-02-21 16:44:00,
2013-02-21 11:45:00,29.3,10.6,29.78,NNW,343,4.0,4.0,45,0.00,,SKC,0.00,VWS V14.01,2013-02-21 16:45:00,
2013-02-21 11:46:00,29.3,10.6,29.78,NNW,347,3.0,4.0,45,0.00,,SKC,0.00,VWS V14.01,2013-02-21 16:46:00,
2013-02-21 11:49:00,29.4,11.7,29.78,WNW,301,1.0,4.0,47,0.00,,SKC,0.00,VWS V14.01,2013-02-21 16:49:00,
2013-02-21 11:50:00,29.5,10.8,29.78,NW,322,1.0,3.0,45,0.00,,SKC,0.00,VWS V14.01,2013-02-21 16:50:00,
2013-02-21 11:51:00,29.5,10.8,29.78,NNW,343,5.0,5.0,45,0.00,,SKC,0.00,VWS V14.01,2013-02-21 16:51:00,
2013-02-21 11:54:00,29.5,9.8,29.78,NNW,336,1.0,5.0,43,0.00,,SKC,0.00,VWS V14.01,2013-02-21 16:54:00,
2013-02-21 11:55:00,29.5,9.8,29.78,NNW,346,2.0,3.0,43,0.00,,SKC,0.00,VWS V14.01,2013-02-21 16:55:00,
2013-02-21 11:56:00,29.5,9.8,29.78,West,263,1.0,3.0,43,0.00,,SKC,0.00,VWS V14.01,2013-02-21 16:56:00,
2013-02-21 11:59:00,29.5,10.3,29.78,NNW,332,1.0,5.0,44,0.00,,SKC,0.00,VWS V14.01,2013-02-21 16:59:00,
2013-02-21 12:00:00,29.5,10.3,29.78,NNW,332,1.0,5.0,44,0.00,,SKC,0.00,VWS V14.01,2013-02-21 17:00:00,
2013-02-21 12:01:00,29.5,10.3,29.78,NW,323,2.0,4.0,44,0.00,,SKC,0.00,VWS V14.01,2013-02-21 17:01:00,
2013-02-21 12:02:00,29.5,10.3,29.78,NW,326,0.0,5.0,44,0.00,,SKC,0.00,VWS V14.01,2013-02-21 17:02:00,
2013-02-21 12:04:00,29.5,10.3,29.78,NNW,342,0.0,6.0,44,0.00,,SKC,0.00,VWS V14.01,2013-02-21 17:04:00,
2013-02-21 12:05:00,29.5,10.3,29.78,NNW,342,0.0,6.0,44,0.00,,SKC,0.00,VWS V14.01,2013-02-21 17:05:00,
2013-02-21 12:06:00,29.5,10.3,29.78,NNW,342,0.0,0.0,44,0.00,,SKC,0.00,VWS V14.01,2013-02-21 17:06:00,
2013-02-21 12:07:00,29.5,10.3,29.78,NNW,342,0.0,0.0,44,0.00,,SKC,0.00,VWS V14.01,2013-02-21 17:07:00,
2013-02-21 12:09:00,29.5,10.3,29.78,NNW,347,1.0,1.0,44,0.00,,SKC,0.00,VWS V14.01,2013-02-21 17:09:00,
2013-02-21 12:10:00,29.5,10.3,29.78,NNW,347,1.0,1.0,44,0.00,,SKC,0.00,VWS V14.01,2013-02-21 17:10:00,
2013-02-21 12:11:00,29.8,10.6,29.78,North,352,3.0,3.0,44,0.00,,SKC,0.00,VWS V14.01,2013-02-21 17:11:00,
2013-02-21 12:13:00,30.0,11.7,29.78,NNW,328,1.0,3.0,46,0.00,,SKC,0.00,VWS V14.01,2013-02-21 17:13:00,
2013-02-21 12:14:00,30.0,11.7,29.78,NNW,328,0.0,0.0,46,0.00,,SKC,0.00,VWS V14.01,2013-02-21 17:14:00,
2013-02-21 12:15:00,30.0,11.7,29.78,NNW,328,0.0,3.0,46,0.00,,SKC,0.00,VWS V14.01,2013-02-21 17:15:00,
2013-02-21 12:16:00,30.0,11.7,29.78,NW,319,0.0,0.0,46,0.00,,SKC,0.00,VWS V14.01,2013-02-21 17:16:00,
2013-02-21 12:18:00,30.4,12.1,29.78,NNW,337,0.0,0.0,46,0.00,,SKC,0.00,VWS V14.01,2013-02-21 17:18:00,
2013-02-21 12:19:00,30.6,12.3,29.78,NW,325,1.0,1.0,46,0.00,,SKC,0.00,VWS V14.01,2013-02-21 17:19:00,
2013-02-21 12:20:00,30.4,12.1,29.78,NNW,335,0.0,1.0,46,0.00,,SKC,0.00,VWS V14.01,2013-02-21 17:20:00,
2013-02-21 12:21:00,30.6,11.8,29.78,NW,305,2.0,2.0,45,0.00,,SKC,0.00,VWS V14.01,2013-02-21 17:21:00,
2013-02-21 12:23:00,30.6,11.8,29.78,NNW,333,2.0,7.0,45,0.00,,SKC,0.00,VWS V14.01,2013-02-21 17:23:00,
2013-02-21 12:25:00,30.6,11.8,29.78,NNW,333,2.0,2.0,45,0.00,,SKC,0.00,VWS V14.01,2013-02-21 17:25:00,
2013-02-21 12:26:00,30.6,11.8,29.78,NW,323,0.0,2.0,45,0.00,,SKC,0.00,VWS V14.01,2013-02-21 17:26:00,
2013-02-21 12:28:00,30.4,11.6,29.78,NNW,342,1.0,6.0,45,0.00,,SKC,0.00,VWS V14.01,2013-02-21 17:28:00,
2013-02-21 12:30:00,30.6,11.8,29.78,NW,326,0.0,2.0,45,0.00,,SKC,0.00,VWS V14.01,2013-02-21 17:30:00,
2013-02-21 12:32:00,30.7,11.9,29.78,NW,326,0.0,2.0,45,0.00,,SKC,0.00,VWS V14.01,2013-02-21 17:32:00,
2013-02-21 12:33:00,30.7,11.9,29.78,NW,326,0.0,2.0,45,0.00,,SKC,0.00,VWS V14.01,2013-02-21 17:33:00,
2013-02-21 12:34:00,30.7,11.9,29.78,NW,319,1.0,2.0,45,0.00,,SKC,0.00,VWS V14.01,2013-02-21 17:34:00,
2013-02-21 12:35:00,30.9,11.1,29.78,WNW,285,0.0,5.0,43,0.00,,SKC,0.00,VWS V14.01,2013-02-21 17:35:00,
2013-02-21 12:37:00,31.0,11.1,29.78,NW,308,0.0,5.0,43,0.00,,SKC,0.00,VWS V14.01,2013-02-21 17:37:00,
2013-02-21 12:39:00,31.0,12.2,29.78,NW,325,0.0,5.0,45,0.00,,SKC,0.00,VWS V14.01,2013-02-21 17:39:00,
2013-02-21 12:40:00,31.2,12.4,29.78,WNW,294,1.0,5.0,45,0.00,,SKC,0.00,VWS V14.01,2013-02-21 17:40:00,
2013-02-21 12:43:00,31.2,11.8,29.78,NW,323,1.0,11.0,44,0.00,,SKC,0.00,VWS V14.01,2013-02-21 17:43:00,
2013-02-21 12:44:00,31.2,11.8,29.78,NNW,347,2.0,11.0,44,0.00,,SKC,0.00,VWS V14.01,2013-02-21 17:44:00,
2013-02-21 12:45:00,31.2,11.8,29.78,NNW,347,2.0,11.0,44,0.00,,SKC,0.00,VWS V14.01,2013-02-21 17:45:00,
2013-02-21 12:46:00,31.2,11.8,29.78,NNW,335,0.0,2.0,44,0.00,,SKC,0.00,VWS V14.01,2013-02-21 17:46:00,
2013-02-21 12:49:00,31.3,11.4,29.78,NNW,339,2.0,6.0,43,0.00,,SKC,0.00,VWS V14.01,2013-02-21 17:49:00,
2013-02-21 12:50:00,31.3,11.4,29.78,NNW,329,6.0,6.0,43,0.00,,SKC,0.00,VWS V14.01,2013-02-21 17:50:00,
2013-02-21 12:51:00,31.2,11.3,29.78,NNW,328,1.0,7.0,43,0.00,,SKC,0.00,VWS V14.01,2013-02-21 17:51:00,
2013-02-21 12:54:00,31.0,12.7,29.78,NW,323,2.0,7.0,46,0.00,,SKC,0.00,VWS V14.01,2013-02-21 17:54:00,
2013-02-21 12:55:00,31.0,11.7,29.78,NNW,329,0.0,0.0,44,0.00,,SKC,0.00,VWS V14.01,2013-02-21 17:55:00,
2013-02-21 12:56:00,30.9,11.1,29.78,NNW,332,1.0,5.0,43,0.00,,SKC,0.00,VWS V14.01,2013-02-21 17:56:00,
2013-02-21 12:59:00,30.9,11.1,29.77,NNW,329,3.0,8.0,43,0.00,,SKC,0.00,VWS V14.01,2013-02-21 17:59:00,
2013-02-21 13:00:00,30.9,11.1,29.77,North,357,6.0,6.0,43,0.00,,SKC,0.00,VWS V14.01,2013-02-21 18:00:00,
2013-02-21 13:01:00,30.9,11.1,29.77,SSW,198,1.0,6.0,43,0.00,,SKC,0.00,VWS V14.01,2013-02-21 18:01:00,
2013-02-21 13:02:00,30.9,11.1,29.77,NNW,328,0.0,6.0,43,0.00,,SKC,0.00,VWS V14.01,2013-02-21 18:02:00,
2013-02-21 13:04:00,30.9,11.1,29.77,NW,311,2.0,6.0,43,0.00,,SKC,0.00,VWS V14.01,2013-02-21 18:04:00,
2013-02-21 13:05:00,30.9,11.1,29.77,NW,311,2.0,6.0,43,0.00,,SKC,0.00,VWS V14.01,2013-02-21 18:05:00,
2013-02-21 13:06:00,30.7,10.9,29.77,NNW,332,1.0,5.0,43,0.00,,SKC,0.00,VWS V14.01,2013-02-21 18:06:00,
2013-02-21 13:07:00,30.7,11.4,29.77,NNW,335,2.0,5.0,44,0.00,,SKC,0.00,VWS V14.01,2013-02-21 18:07:00,
2013-02-21 13:09:00,30.9,11.6,29.77,WNW,302,1.0,1.0,44,0.00,,SKC,0.00,VWS V14.01,2013-02-21 18:09:00,
2013-02-21 13:10:00,30.9,11.6,29.77,WNW,299,1.0,6.0,44,0.00,,SKC,0.00,VWS V14.01,2013-02-21 18:10:00,
2013-02-21 13:11:00,30.9,12.1,29.77,West,280,1.0,6.0,45,0.00,,SKC,0.00,VWS V14.01,2013-02-21 18:11:00,
2013-02-21 13:12:00,30.9,12.1,29.77,West,280,1.0,6.0,45,0.00,,SKC,0.00,VWS V14.01,2013-02-21 18:12:00,
2013-02-21 13:13:00,30.7,11.9,29.77,NNW,329,0.0,6.0,45,0.00,,SKC,0.00,VWS V14.01,2013-02-21 18:13:00,
2013-02-21 13:14:00,30.7,11.9,29.77,NW,323,1.0,1.0,45,0.00,,SKC,0.00,VWS V14.01,2013-02-21 18:14:00,
2013-02-21 13:15:00,30.7,11.9,29.77,NW,323,1.0,6.0,45,0.00,,SKC,0.00,VWS V14.01,2013-02-21 18:15:00,
2013-02-21 13:16:00,30.7,11.9,29.77,NNW,332,0.0,1.0,45,0.00,,SKC,0.00,VWS V14.01,2013-02-21 18:16:00,
2013-02-21 13:17:00,30.7,11.9,29.77,NNW,329,0.0,1.0,45,0.00,,SKC,0.00,VWS V14.01,2013-02-21 18:17:00,
2013-02-21 13:18:00,30.7,11.9,29.77,WNW,292,1.0,2.0,45,0.00,,SKC,0.00,VWS V14.01,2013-02-21 18:18:00,
2013-02-21 13:20:00,30.7,11.9,29.77,WNW,292,7.0,7.0,45,0.00,,SKC,0.00,VWS V14.01,2013-02-21 18:20:00,
2013-02-21 13:22:00,30.7,11.9,29.77,NNW,339,1.0,7.0,45,0.00,,SKC,0.00,VWS V14.01,2013-02-21 18:22:00,
2013-02-21 13:23:00,30.9,12.1,29.77,North,352,1.0,7.0,45,0.00,,SKC,0.00,VWS V14.01,2013-02-21 18:23:00,
2013-02-21 13:25:00,30.9,12.1,29.77,NNW,328,2.0,4.0,45,0.00,,SKC,0.00,VWS V14.01,2013-02-21 18:25:00,
2013-02-21 13:27:00,31.0,10.6,29.77,NNW,328,2.0,4.0,42,0.00,,SKC,0.00,VWS V14.01,2013-02-21 18:27:00,
2013-02-21 13:29:00,31.0,10.6,29.77,NNW,333,0.0,4.0,42,0.00,,SKC,0.00,VWS V14.01,2013-02-21 18:29:00,
2013-02-21 13:30:00,31.2,10.8,29.77,NNW,344,0.0,1.0,42,0.00,,SKC,0.00,VWS V14.01,2013-02-21 18:30:00,
2013-02-21 13:32:00,31.3,11.9,29.77,NNW,328,13.0,17.0,44,0.00,,SKC,0.00,VWS V14.01,2013-02-21 18:32:00,
2013-02-21 13:33:00,31.3,11.9,29.77,North,349,1.0,17.0,44,0.00,,SKC,0.00,VWS V14.01,2013-02-21 18:33:00,
2013-02-21 13:34:00,31.3,11.9,29.77,NNW,339,2.0,2.0,44,0.00,,SKC,0.00,VWS V14.01,2013-02-21 18:34:00,
2013-02-21 13:35:00,31.3,11.9,29.77,NNW,339,2.0,17.0,44,0.00,,SKC,0.00,VWS V14.01,2013-02-21 18:35:00,
2013-02-21 13:36:00,31.3,11.9,29.77,North,353,2.0,17.0,44,0.00,,SKC,0.00,VWS V14.01,2013-02-21 18:36:00,
2013-02-21 13:37:00,31.3,11.9,29.77,NW,322,2.0,17.0,44,0.00,,SKC,0.00,VWS V14.01,2013-02-21 18:37:00,
2013-02-21 13:38:00,31.3,11.9,29.77,NW,304,0.0,17.0,44,0.00,,SKC,0.00,VWS V14.01,2013-02-21 18:38:00,
2013-02-21 13:39:00,31.3,11.9,29.77,NW,304,0.0,0.0,44,0.00,,SKC,0.00,VWS V14.01,2013-02-21 18:39:00,
2013-02-21 13:40:00,31.3,11.9,29.77,NW,305,0.0,17.0,44,0.00,,SKC,0.00,VWS V14.01,2013-02-21 18:40:00,
2013-02-21 13:42:00,31.6,11.7,29.77,NNW,347,2.0,2.0,43,0.00,,SKC,0.00,VWS V14.01,2013-02-21 18:42:00,
2013-02-21 13:43:00,31.6,11.7,29.77,NW,309,0.0,3.0,43,0.00,,SKC,0.00,VWS V14.01,2013-02-21 18:43:00,
2013-02-21 13:44:00,31.6,11.7,29.76,NNW,342,2.0,3.0,43,0.00,,SKC,0.00,VWS V14.01,2013-02-21 18:44:00,
2013-02-21 13:45:00,31.8,12.4,29.76,WNW,292,5.0,7.0,44,0.00,,SKC,0.00,VWS V14.01,2013-02-21 18:45:00,
2013-02-21 13:47:00,31.6,10.6,29.76,North,357,2.0,7.0,41,0.00,,SKC,0.00,VWS V14.01,2013-02-21 18:47:00,
2013-02-21 13:48:00,31.6,10.6,29.76,North,352,4.0,17.0,41,0.00,,SKC,0.00,VWS V14.01,2013-02-21 18:48:00,
2013-02-21 13:49:00,31.5,10.5,29.76,South,171,1.0,1.0,41,0.00,,SKC,0.00,VWS V14.01,2013-02-21 18:49:00,
2013-02-21 13:50:00,31.5,10.5,29.76,NNW,335,3.0,3.0,41,0.00,,SKC,0.00,VWS V14.01,2013-02-21 18:50:00,
2013-02-21 13:52:00,31.5,10.5,29.76,NW,316,0.0,6.0,41,0.00,,SKC,0.00,VWS V14.01,2013-02-21 18:52:00,
2013-02-21 13:54:00,31.5,11.6,29.76,WNW,299,1.0,6.0,43,0.00,,SKC,0.00,VWS V14.01,2013-02-21 18:54:00,
2013-02-21 13:55:00,31.8,12.4,29.76,NNW,333,3.0,6.0,44,0.00,,SKC,0.00,VWS V14.01,2013-02-21 18:55:00,
2013-02-21 13:57:00,31.8,12.4,29.76,NNW,344,5.0,6.0,44,0.00,,SKC,0.00,VWS V14.01,2013-02-21 18:57:00,
2013-02-21 13:59:00,31.9,10.3,29.77,North,352,10.0,10.0,40,0.00,,SKC,0.00,VWS V14.01,2013-02-21 18:59:00,
2013-02-21 14:00:00,31.9,10.3,29.77,North,354,4.0,10.0,40,0.00,,SKC,0.00,VWS V14.01,2013-02-21 19:00:00,
2013-02-21 14:01:00,31.9,10.3,29.77,NNW,339,3.0,12.0,40,0.00,,SKC,0.00,VWS V14.01,2013-02-21 19:01:00,
2013-02-21 14:02:00,31.9,12.0,29.77,North,353,0.0,12.0,43,0.00,,SKC,0.00,VWS V14.01,2013-02-21 19:02:00,
2013-02-21 14:05:00,31.9,10.9,29.77,NNW,329,0.0,5.0,41,0.00,,SKC,0.00,VWS V14.01,2013-02-21 19:05:00,
2013-02-21 14:06:00,32.1,11.1,29.77,NNW,335,0.0,5.0,41,0.00,,SKC,0.00,VWS V14.01,2013-02-21 19:06:00,
2013-02-21 14:07:00,32.1,11.6,29.77,NW,326,0.0,5.0,42,0.00,,SKC,0.00,VWS V14.01,2013-02-21 19:07:00,
2013-02-21 14:10:00,32.1,11.6,29.77,NNW,328,0.0,3.0,42,0.00,,SKC,0.00,VWS V14.01,2013-02-21 19:10:00,
2013-02-21 14:11:00,32.2,11.2,29.77,NW,323,1.0,3.0,41,0.00,,SKC,0.00,VWS V14.01,2013-02-21 19:11:00,
2013-02-21 14:13:00,32.2,11.2,29.77,NNW,330,1.0,7.0,41,0.00,,SKC,0.00,VWS V14.01,2013-02-21 19:13:00,
2013-02-21 14:15:00,32.2,11.2,29.77,NNW,330,1.0,4.0,41,0.00,,SKC,0.00,VWS V14.01,2013-02-21 19:15:00,
2013-02-21 14:16:00,32.2,11.2,29.77,NNW,344,2.0,4.0,41,0.00,,SKC,0.00,VWS V14.01,2013-02-21 19:16:00,
2013-02-21 14:18:00,32.2,10.6,29.77,WNW,298,2.0,12.0,40,0.00,,SKC,0.00,VWS V14.01,2013-02-21 19:18:00,
2013-02-21 14:20:00,32.2,10.6,29.77,NNW,342,7.0,14.0,40,0.00,,SKC,0.00,VWS V14.01,2013-02-21 19:20:00,
2013-02-21 14:21:00,32.2,10.6,29.77,South,186,0.0,14.0,40,0.00,,SKC,0.00,VWS V14.01,2013-02-21 19:21:00,
2013-02-21 14:23:00,32.2,10.6,29.77,NNW,346,8.0,16.0,40,0.00,,SKC,0.00,VWS V14.01,2013-02-21 19:23:00,
2013-02-21 14:25:00,32.4,11.9,29.77,North,350,0.0,6.0,42,0.00,,SKC,0.00,VWS V14.01,2013-02-21 19:25:00,
2013-02-21 14:26:00,32.5,12.5,29.77,North,349,0.0,6.0,43,0.00,,SKC,0.00,VWS V14.01,2013-02-21 19:26:00,
2013-02-21 14:27:00,32.5,12.5,29.77,NNW,346,0.0,6.0,43,0.00,,SKC,0.00,VWS V14.01,2013-02-21 19:27:00,
2013-02-21 14:28:00,32.7,11.6,29.78,WNW,288,1.0,6.0,41,0.00,,SKC,0.00,VWS V14.01,2013-02-21 19:28:00,
2013-02-21 14:30:00,32.8,12.2,29.78,North,349,0.0,0.0,42,0.00,,SKC,0.00,VWS V14.01,2013-02-21 19:30:00,
2013-02-21 14:31:00,32.8,12.2,29.78,NW,326,3.0,10.0,42,0.00,,SKC,0.00,VWS V14.01,2013-02-21 19:31:00,
2013-02-21 14:32:00,32.8,12.2,29.78,North,349,2.0,10.0,42,0.00,,SKC,0.00,VWS V14.01,2013-02-21 19:32:00,
2013-02-21 14:33:00,32.8,12.2,29.78,NNW,340,6.0,12.0,42,0.00,,SKC,0.00,VWS V14.01,2013-02-21 19:33:00,
2013-02-21 14:35:00,32.7,11.6,29.78,NNW,335,2.0,13.0,41,0.00,,SKC,0.00,VWS V14.01,2013-02-21 19:35:00,
2013-02-21 14:37:00,32.7,11.6,29.78,SSE,157,8.0,14.0,41,0.00,,SKC,0.00,VWS V14.01,2013-02-21 19:37:00,
2013-02-21 14:39:00,32.7,12.2,29.78,SSE,162,12.0,14.0,42,0.00,,SKC,0.00,VWS V14.01,2013-02-21 19:39:00,
2013-02-21 14:40:00,32.5,12.0,29.78,South,179,8.0,16.0,42,0.00,,SKC,0.00,VWS V14.01,2013-02-21 19:40:00,
2013-02-21 14:42:00,32.5,12.0,29.78,NNW,347,2.0,16.0,42,0.00,,SKC,0.00,VWS V14.01,2013-02-21 19:42:00,
2013-02-21 14:44:00,32.7,12.2,29.78,North,356,13.0,16.0,42,0.00,,SKC,0.00,VWS V14.01,2013-02-21 19:44:00,
2013-02-21 14:45:00,32.5,12.0,29.78,North,352,6.0,16.0,42,0.00,,SKC,0.00,VWS V14.01,2013-02-21 19:45:00,
2013-02-21 14:48:00,32.5,12.0,29.78,NNW,340,2.0,19.0,42,0.00,,SKC,0.00,VWS V14.01,2013-02-21 19:48:00,
2013-02-21 14:49:00,32.5,12.0,29.78,NNW,333,6.0,19.0,42,0.00,,SKC,0.00,VWS V14.01,2013-02-21 19:49:00,
2013-02-21 14:50:00,32.5,12.0,29.78,NW,311,2.0,19.0,42,0.00,,SKC,0.00,VWS V14.01,2013-02-21 19:50:00,
2013-02-21 14:51:00,32.5,12.0,29.78,NNW,347,11.0,12.0,42,0.00,,SKC,0.00,VWS V14.01,2013-02-21 19:51:00,
2013-02-21 14:54:00,32.5,11.4,29.78,NNW,332,1.0,12.0,41,0.00,,SKC,0.00,VWS V14.01,2013-02-21 19:54:00,
2013-02-21 14:55:00,32.5,11.4,29.78,NNW,335,1.0,12.0,41,0.00,,SKC,0.00,VWS V14.01,2013-02-21 19:55:00,
2013-02-21 14:56:00,32.7,11.6,29.78,NNW,344,8.0,8.0,41,0.00,,SKC,0.00,VWS V14.01,2013-02-21 19:56:00,
2013-02-21 14:59:00,32.8,12.2,29.79,NNW,346,1.0,8.0,42,0.00,,SKC,0.00,VWS V14.01,2013-02-21 19:59:00,
2013-02-21 15:00:00,32.9,11.2,29.79,NNW,339,1.0,13.0,40,0.00,,SKC,0.00,VWS V14.01,2013-02-21 20:00:00,
2013-02-21 15:03:00,32.8,11.1,29.79,NNW,346,2.0,20.0,40,0.00,,SKC,0.00,VWS V14.01,2013-02-21 20:03:00,
2013-02-21 15:04:00,32.8,11.7,29.79,NNW,344,0.0,0.0,41,0.00,,SKC,0.00,VWS V14.01,2013-02-21 20:04:00,
2013-02-21 15:05:00,32.8,11.7,29.79,NNW,344,0.0,20.0,41,0.00,,SKC,0.00,VWS V14.01,2013-02-21 20:05:00,
2013-02-21 15:06:00,32.8,11.7,29.79,North,357,5.0,12.0,41,0.00,,SKC,0.00,VWS V14.01,2013-02-21 20:06:00,
2013-02-21 15:08:00,32.8,12.2,29.79,North,349,0.0,12.0,42,0.00,,SKC,0.00,VWS V14.01,2013-02-21 20:08:00,
2013-02-21 15:10:00,32.8,11.1,29.79,North,349,0.0,4.0,40,0.00,,SKC,0.00,VWS V14.01,2013-02-21 20:10:00,
2013-02-21 15:11:00,32.9,11.2,29.79,NW,309,0.0,4.0,40,0.00,,SKC,0.00,VWS V14.01,2013-02-21 20:11:00,
2013-02-21 15:13:00,32.9,11.8,29.80,North,357,1.0,7.0,41,0.00,,SKC,0.00,VWS V14.01,2013-02-21 20:13:00,
2013-02-21 15:15:00,33.1,12.0,29.80,NNW,344,0.0,2.0,41,0.00,,SKC,0.00,VWS V14.01,2013-02-21 20:15:00,
2013-02-21 15:16:00,33.1,12.0,29.80,NNW,344,0.0,2.0,41,0.00,,SKC,0.00,VWS V14.01,2013-02-21 20:16:00,
2013-02-21 15:18:00,33.2,12.6,29.80,North,352,3.0,3.0,42,0.00,,SKC,0.00,VWS V14.01,2013-02-21 20:18:00,
2013-02-21 15:20:00,33.2,12.6,29.80,North,354,7.0,13.0,42,0.00,,SKC,0.00,VWS V14.01,2013-02-21 20:20:00,
2013-02-21 15:21:00,33.1,12.5,29.80,NNW,330,3.0,13.0,42,0.00,,SKC,0.00,VWS V14.01,2013-02-21 20:21:00,
2013-02-21 15:24:00,32.9,12.3,29.80,NNW,337,0.0,13.0,42,0.00,,SKC,0.00,VWS V14.01,2013-02-21 20:24:00,
2013-02-21 15:25:00,32.9,12.3,29.80,SSE,155,3.0,4.0,42,0.00,,SKC,0.00,VWS V14.01,2013-02-21 20:25:00,
2013-02-21 15:26:00,32.9,12.3,29.80,North,357,6.0,6.0,42,0.00,,SKC,0.00,VWS V14.01,2013-02-21 20:26:00,
2013-02-21 15:29:00,32.8,11.7,29.81,NNW,337,0.0,17.0,41,0.00,,SKC,0.00,VWS V14.01,2013-02-21 20:29:00,
2013-02-21 15:30:00,32.7,12.2,29.81,North,354,0.0,3.0,42,0.00,,SKC,0.00,VWS V14.01,2013-02-21 20:30:00,
2013-02-21 15:31:00,32.7,12.2,29.81,NW,306,1.0,3.0,42,0.00,,SKC,0.00,VWS V14.01,2013-02-21 20:31:00,
2013-02-21 15:34:00,32.7,12.7,29.81,North,349,2.0,7.0,43,0.00,,SKC,0.00,VWS V14.01,2013-02-21 20:34:00,
2013-02-21 15:35:00,32.7,12.7,29.81,SSE,168,7.0,7.0,43,0.00,,SKC,0.00,VWS V14.01,2013-02-21 20:35:00,
2013-02-21 15:36:00,32.7,12.7,29.81,North,354,2.0,8.0,43,0.00,,SKC,0.00,VWS V14.01,2013-02-21 20:36:00,
2013-02-21 15:37:00,32.5,12.0,29.81,NNW,337,7.0,8.0,42,0.00,,SKC,0.00,VWS V14.01,2013-02-21 20:37:00,
2013-02-21 15:39:00,32.4,12.4,29.81,North,357,11.0,18.0,43,0.00,,SKC,0.00,VWS V14.01,2013-02-21 20:39:00,
2013-02-21 15:40:00,32.1,11.6,29.81,SSE,160,7.0,18.0,42,0.00,,SKC,0.00,VWS V14.01,2013-02-21 20:40:00,
2013-02-21 15:41:00,32.1,11.6,29.81,North,357,4.0,18.0,42,0.00,,SKC,0.00,VWS V14.01,2013-02-21 20:41:00,
2013-02-21 15:42:00,31.9,11.4,29.81,South,179,2.0,18.0,42,0.00,,SKC,0.00,VWS V14.01,2013-02-21 20:42:00,
2013-02-21 15:44:00,31.8,11.3,29.81,NNW,340,6.0,18.0,42,0.00,,SKC,0.00,VWS V14.01,2013-02-21 20:44:00,
2013-02-21 15:45:00,31.8,11.3,29.81,NNW,347,10.0,18.0,42,0.00,,SKC,0.00,VWS V14.01,2013-02-21 20:45:00,
2013-02-21 15:46:00,31.6,11.7,29.81,NNW,344,14.0,16.0,43,0.00,,SKC,0.00,VWS V14.01,2013-02-21 20:46:00,
2013-02-21 15:47:00,31.6,11.2,29.81,North,350,11.0,17.0,42,0.00,,SKC,0.00,VWS V14.01,2013-02-21 20:47:00,
2013-02-21 15:49:00,31.5,11.1,29.81,North,354,10.0,10.0,42,0.00,,SKC,0.00,VWS V14.01,2013-02-21 20:49:00,
2013-02-21 15:50:00,31.5,11.1,29.81,North,354,10.0,17.0,42,0.00,,SKC,0.00,VWS V14.01,2013-02-21 20:50:00,
2013-02-21 15:52:00,31.3,10.9,29.81,NNW,337,12.0,17.0,42,0.00,,SKC,0.00,VWS V14.01,2013-02-21 20:52:00,
2013-02-21 15:53:00,31.5,11.1,29.81,North,354,6.0,17.0,42,0.00,,SKC,0.00,VWS V14.01,2013-02-21 20:53:00,
2013-02-21 15:55:00,31.3,10.9,29.81,South,174,2.0,13.0,42,0.00,,SKC,0.00,VWS V14.01,2013-02-21 20:55:00,
2013-02-21 15:57:00,31.3,10.9,29.81,NNW,346,12.0,16.0,42,0.00,,SKC,0.00,VWS V14.01,2013-02-21 20:57:00,
2013-02-21 15:58:00,31.2,10.8,29.81,NNW,340,2.0,16.0,42,0.00,,SKC,0.00,VWS V14.01,2013-02-21 20:58:00,
2013-02-21 16:00:00,31.2,11.3,29.82,North,354,0.0,10.0,43,0.00,,SKC,0.00,VWS V14.01,2013-02-21 21:00:00,
2013-02-21 16:02:00,31.2,11.3,29.82,North,350,2.0,18.0,43,0.00,,SKC,0.00,VWS V14.01,2013-02-21 21:02:00,
2013-02-21 16:03:00,31.2,12.4,29.82,North,357,0.0,18.0,45,0.00,,SKC,0.00,VWS V14.01,2013-02-21 21:03:00,
2013-02-21 16:04:00,31.2,12.4,29.82,NNW,344,0.0,18.0,45,0.00,,SKC,0.00,VWS V14.01,2013-02-21 21:04:00,
2013-02-21 16:05:00,31.2,12.4,29.82,SSE,155,1.0,7.0,45,0.00,,SKC,0.00,VWS V14.01,2013-02-21 21:05:00,
2013-02-21 16:07:00,31.2,11.3,29.82,NNW,347,2.0,14.0,43,0.00,,SKC,0.00,VWS V14.01,2013-02-21 21:07:00,
2013-02-21 16:08:00,31.2,11.3,29.82,North,349,7.0,14.0,43,0.00,,SKC,0.00,VWS V14.01,2013-02-21 21:08:00,
2013-02-21 16:09:00,31.2,11.3,29.82,NNW,346,17.0,17.0,43,0.00,,SKC,0.00,VWS V14.01,2013-02-21 21:09:00,
2013-02-21 16:10:00,31.0,11.1,29.82,NNW,347,14.0,14.0,43,0.00,,SKC,0.00,VWS V14.01,2013-02-21 21:10:00,
2013-02-21 16:12:00,31.0,11.1,29.82,NNW,337,13.0,14.0,43,0.00,,SKC,0.00,VWS V14.01,2013-02-21 21:12:00,
2013-02-21 16:14:00,31.0,11.1,29.83,North,353,3.0,14.0,43,0.00,,SKC,0.00,VWS V14.01,2013-02-21 21:14:00,
2013-02-21 16:15:00,31.0,11.1,29.83,North,353,0.0,14.0,43,0.00,,SKC,0.00,VWS V14.01,2013-02-21 21:15:00,
2013-02-21 16:16:00,31.0,11.1,29.83,North,357,13.0,13.0,43,0.00,,SKC,0.00,VWS V14.01,2013-02-21 21:16:00,
2013-02-21 16:17:00,31.0,10.6,29.83,NNW,343,0.0,13.0,42,0.00,,SKC,0.00,VWS V14.01,2013-02-21 21:17:00,
2013-02-21 16:19:00,31.0,10.6,29.83,NNW,342,0.0,14.0,42,0.00,,SKC,0.00,VWS V14.01,2013-02-21 21:19:00,
2013-02-21 16:20:00,31.0,10.6,29.83,NNW,342,0.0,14.0,42,0.00,,SKC,0.00,VWS V14.01,2013-02-21 21:20:00,
2013-02-21 16:21:00,31.0,11.7,29.83,SSE,164,8.0,17.0,44,0.00,,SKC,0.00,VWS V14.01,2013-02-21 21:21:00,
2013-02-21 16:24:00,31.0,11.7,29.83,NNW,342,3.0,17.0,44,0.00,,SKC,0.00,VWS V14.01,2013-02-21 21:24:00,
2013-02-21 16:25:00,30.9,11.1,29.83,NW,315,1.0,8.0,43,0.00,,SKC,0.00,VWS V14.01,2013-02-21 21:25:00,
2013-02-21 16:26:00,30.9,11.1,29.83,NW,315,0.0,8.0,43,0.00,,SKC,0.00,VWS V14.01,2013-02-21 21:26:00,
2013-02-21 16:29:00,30.9,11.6,29.84,NNW,332,0.0,18.0,44,0.00,,SKC,0.00,VWS V14.01,2013-02-21 21:29:00,
2013-02-21 16:30:00,30.7,11.4,29.84,NNW,347,0.0,5.0,44,0.00,,SKC,0.00,VWS V14.01,2013-02-21 21:30:00,
2013-02-21 16:31:00,30.7,11.4,29.84,SSE,167,0.0,6.0,44,0.00,,SKC,0.00,VWS V14.01,2013-02-21 21:31:00,
2013-02-21 16:35:00,30.7,11.9,29.84,NW,323,1.0,2.0,45,0.00,,SKC,0.00,VWS V14.01,2013-02-21 21:35:00,
2013-02-21 16:36:00,30.7,11.9,29.84,NNW,344,18.0,18.0,45,0.00,,SKC,0.00,VWS V14.01,2013-02-21 21:36:00,
2013-02-21 16:40:00,30.4,11.6,29.84,North,357,7.0,17.0,45,0.00,,SKC,0.00,VWS V14.01,2013-02-21 21:40:00,
2013-02-21 16:41:00,30.4,11.6,29.84,NNW,343,10.0,17.0,45,0.00,,SKC,0.00,VWS V14.01,2013-02-21 21:41:00,
2013-02-21 16:42:00,30.4,12.1,29.84,North,357,1.0,17.0,46,0.00,,SKC,0.00,VWS V14.01,2013-02-21 21:42:00,
2013-02-21 16:45:00,30.1,11.8,29.86,NNW,346,6.0,12.0,46,0.00,,SKC,0.00,VWS V14.01,2013-02-21 21:45:00,
2013-02-21 16:46:00,30.1,11.8,29.86,NNW,347,10.0,12.0,46,0.00,,SKC,0.00,VWS V14.01,2013-02-21 21:46:00,
2013-02-21 16:47:00,30.1,11.3,29.86,SSW,196,0.0,12.0,45,0.00,,SKC,0.00,VWS V14.01,2013-02-21 21:47:00,
2013-02-21 16:50:00,30.0,11.7,29.86,NNW,347,7.0,24.0,46,0.00,,SKC,0.00,VWS V14.01,2013-02-21 21:50:00,
2013-02-21 16:51:00,30.0,11.7,29.86,NNW,335,4.0,7.0,46,0.00,,SKC,0.00,VWS V14.01,2013-02-21 21:51:00,
2013-02-21 16:52:00,30.0,11.7,29.86,North,349,7.0,8.0,46,0.00,,SKC,0.00,VWS V14.01,2013-02-21 21:52:00,
2013-02-21 16:55:00,30.0,11.7,29.86,NNW,333,3.0,8.0,46,0.00,,SKC,0.00,VWS V14.01,2013-02-21 21:55:00,
2013-02-21 16:56:00,29.8,11.1,29.86,NNW,339,6.0,20.0,45,0.00,,SKC,0.00,VWS V14.01,2013-02-21 21:56:00,
2013-02-21 16:57:00,29.8,11.1,29.86,NNW,335,0.0,20.0,45,0.00,,SKC,0.00,VWS V14.01,2013-02-21 21:57:00,
2013-02-21 17:00:00,29.8,11.6,29.87,NNW,342,13.0,20.0,46,0.00,,SKC,0.00,VWS V14.01,2013-02-21 22:00:00,
2013-02-21 17:01:00,29.8,11.6,29.87,NNW,340,10.0,24.0,46,0.00,,SKC,0.00,VWS V14.01,2013-02-21 22:01:00,
2013-02-21 17:02:00,29.8,11.6,29.87,NNW,340,0.0,24.0,46,0.00,,SKC,0.00,VWS V14.01,2013-02-21 22:02:00,
2013-02-21 17:05:00,29.7,11.5,29.87,North,352,10.0,24.0,46,0.00,,SKC,0.00,VWS V14.01,2013-02-21 22:05:00,
2013-02-21 17:07:00,29.7,11.5,29.87,NNW,339,3.0,21.0,46,0.00,,SKC,0.00,VWS V14.01,2013-02-21 22:07:00,
2013-02-21 17:08:00,29.7,11.9,29.87,NNW,344,0.0,21.0,47,0.00,,SKC,0.00,VWS V14.01,2013-02-21 22:08:00,
2013-02-21 17:10:00,29.7,11.9,29.87,SSE,165,2.0,21.0,47,0.00,,SKC,0.00,VWS V14.01,2013-02-21 22:10:00,
2013-02-21 17:12:00,29.5,11.8,29.87,NNW,342,3.0,18.0,47,0.00,,SKC,0.00,VWS V14.01,2013-02-21 22:12:00,
2013-02-21 17:13:00,29.5,11.8,29.87,NNW,335,11.0,18.0,47,0.00,,SKC,0.00,VWS V14.01,2013-02-21 22:13:00,
2013-02-21 17:15:00,29.5,11.8,29.89,NNW,342,5.0,18.0,47,0.00,,SKC,0.00,VWS V14.01,2013-02-21 22:15:00,
2013-02-21 17:18:00,29.5,11.8,29.89,NW,325,3.0,14.0,47,0.00,,SKC,0.00,VWS V14.01,2013-02-21 22:18:00,
2013-02-21 17:20:00,29.5,11.8,29.89,North,353,6.0,14.0,47,0.00,,SKC,0.00,VWS V14.01,2013-02-21 22:20:00,
2013-02-21 17:23:00,29.4,11.7,29.89,North,350,0.0,13.0,47,0.00,,SKC,0.00,VWS V14.01,2013-02-21 22:23:00,
2013-02-21 17:25:00,29.4,11.7,29.89,NNW,336,3.0,13.0,47,0.00,,SKC,0.00,VWS V14.01,2013-02-21 22:25:00,
2013-02-21 17:28:00,29.4,12.1,29.89,North,354,0.0,17.0,48,0.00,,SKC,0.00,VWS V14.01,2013-02-21 22:28:00,
2013-02-21 17:29:00,29.3,12.1,29.89,NNW,343,9.0,17.0,48,0.00,,SKC,0.00,VWS V14.01,2013-02-21 22:29:00,
2013-02-21 17:30:00,29.3,12.1,29.89,NNW,343,9.0,17.0,48,0.00,,SKC,0.00,VWS V14.01,2013-02-21 22:30:00,
2013-02-21 17:33:00,29.3,12.1,29.89,SSE,154,13.0,13.0,48,0.00,,SKC,0.00,VWS V14.01,2013-02-21 22:33:00,
2013-02-21 17:34:00,29.3,12.1,29.89,NNW,344,8.0,13.0,48,0.00,,SKC,0.00,VWS V14.01,2013-02-21 22:34:00,
2013-02-21 17:35:00,29.1,11.9,29.89,North,352,7.0,13.0,48,0.00,,SKC,0.00,VWS V14.01,2013-02-21 22:35:00,
2013-02-21 17:38:00,29.1,11.9,29.89,NNW,343,14.0,14.0,48,0.00,,SKC,0.00,VWS V14.01,2013-02-21 22:38:00,
2013-02-21 17:39:00,29.0,11.8,29.89,SSE,157,6.0,14.0,48,0.00,,SKC,0.00,VWS V14.01,2013-02-21 22:39:00,
2013-02-21 17:40:00,29.0,11.8,29.89,North,352,17.0,17.0,48,0.00,,SKC,0.00,VWS V14.01,2013-02-21 22:40:00,
2013-02-21 17:44:00,29.0,11.8,29.92,SSE,152,8.0,17.0,48,0.00,,SKC,0.00,VWS V14.01,2013-02-21 22:44:00,
2013-02-21 17:45:00,29.0,11.8,29.92,South,178,5.0,17.0,48,0.00,,SKC,0.00,VWS V14.01,2013-02-21 22:45:00,
2013-02-21 17:49:00,28.7,12.0,29.92,SSE,155,3.0,9.0,49,0.00,,SKC,0.00,VWS V14.01,2013-02-21 22:49:00,
2013-02-21 17:50:00,28.7,12.0,29.92,North,352,9.0,9.0,49,0.00,,SKC,0.00,VWS V14.01,2013-02-21 22:50:00,
2013-02-21 17:54:00,28.7,11.5,29.92,North,357,11.0,12.0,48,0.00,,SKC,0.00,VWS V14.01,2013-02-21 22:54:00,
2013-02-21 17:55:00,28.7,11.5,29.92,SSE,158,12.0,12.0,48,0.00,,SKC,0.00,VWS V14.01,2013-02-21 22:55:00,
2013-02-21 17:59:00,28.5,11.8,29.93,NNW,336,14.0,16.0,49,0.00,,SKC,0.00,VWS V14.01,2013-02-21 22:59:00,
2013-02-21 18:00:00,28.5,11.8,29.93,NNW,335,18.0,20.0,49,0.00,,SKC,0.00,VWS V14.01,2013-02-21 23:00:00,
2013-02-21 18:04:00,28.5,11.8,29.93,NW,322,0.0,0.0,49,0.00,,SKC,0.00,VWS V14.01,2013-02-21 23:04:00,
2013-02-21 18:05:00,28.5,11.8,29.93,SSE,165,3.0,7.0,49,0.00,,SKC,0.00,VWS V14.01,2013-02-21 23:05:00,
2013-02-21 18:09:00,28.2,12.0,29.93,North,352,19.0,19.0,50,0.00,,SKC,0.00,VWS V14.01,2013-02-21 23:09:00,
2013-02-21 18:10:00,28.2,12.0,29.93,NNW,336,11.0,20.0,50,0.00,,SKC,0.00,VWS V14.01,2013-02-21 23:10:00,
2013-02-21 18:11:00,28.2,12.0,29.93,North,356,12.0,20.0,50,0.00,,SKC,0.00,VWS V14.01,2013-02-21 23:11:00,
2013-02-21 18:14:00,28.2,11.5,29.94,NNW,339,0.0,8.0,49,0.00,,SKC,0.00,VWS V14.01,2013-02-21 23:14:00,
2013-02-21 18:15:00,28.2,11.5,29.94,NNW,343,6.0,11.0,49,0.00,,SKC,0.00,VWS V14.01,2013-02-21 23:15:00,
2013-02-21 18:16:00,28.2,11.5,29.94,NNW,342,0.0,11.0,49,0.00,,SKC,0.00,VWS V14.01,2013-02-21 23:16:00,
2013-02-21 18:20:00,28.1,11.4,29.94,North,356,8.0,8.0,49,0.00,,SKC,0.00,VWS V14.01,2013-02-21 23:20:00,
2013-02-21 18:21:00,28.1,12.3,29.94,North,349,0.0,8.0,51,0.00,,SKC,0.00,VWS V14.01,2013-02-21 23:21:00,
2013-02-21 18:22:00,28.1,12.3,29.94,SSE,167,0.0,8.0,51,0.00,,SKC,0.00,VWS V14.01,2013-02-21 23:22:00,
2013-02-21 18:25:00,27.9,11.7,29.94,NNW,339,6.0,11.0,50,0.00,,SKC,0.00,VWS V14.01,2013-02-21 23:25:00,
2013-02-21 18:26:00,27.8,11.6,29.94,NNW,340,14.0,14.0,50,0.00,,SKC,0.00,VWS V14.01,2013-02-21 23:26:00,
2013-02-21 18:27:00,27.8,11.6,29.94,North,349,2.0,14.0,50,0.00,,SKC,0.00,VWS V14.01,2013-02-21 23:27:00,
2013-02-21 18:30:00,27.8,11.6,29.95,North,357,10.0,12.0,50,0.00,,SKC,0.00,VWS V14.01,2013-02-21 23:30:00,
2013-02-21 18:31:00,27.8,11.6,29.95,North,357,20.0,21.0,50,0.00,,SKC,0.00,VWS V14.01,2013-02-21 23:31:00,
2013-02-21 18:32:00,27.8,11.6,29.95,North,352,8.0,21.0,50,0.00,,SKC,0.00,VWS V14.01,2013-02-21 23:32:00,
2013-02-21 18:35:00,27.8,11.6,29.95,North,357,2.0,21.0,50,0.00,,SKC,0.00,VWS V14.01,2013-02-21 23:35:00,
2013-02-21 18:36:00,27.8,11.6,29.95,North,349,0.0,3.0,50,0.00,,SKC,0.00,VWS V14.01,2013-02-21 23:36:00,
2013-02-21 18:37:00,27.6,11.4,29.95,NNW,346,11.0,11.0,50,0.00,,SKC,0.00,VWS V14.01,2013-02-21 23:37:00,
2013-02-21 18:38:00,27.6,11.4,29.95,North,357,7.0,11.0,50,0.00,,SKC,0.00,VWS V14.01,2013-02-21 23:38:00,
2013-02-21 18:40:00,27.6,11.4,29.95,NNW,343,0.0,11.0,50,0.00,,SKC,0.00,VWS V14.01,2013-02-21 23:40:00,
2013-02-21 18:41:00,27.6,11.4,29.95,NNW,335,0.0,5.0,50,0.00,,SKC,0.00,VWS V14.01,2013-02-21 23:41:00,
2013-02-21 18:43:00,27.5,11.8,29.95,NNW,340,1.0,14.0,51,0.00,,SKC,0.00,VWS V14.01,2013-02-21 23:43:00,
2013-02-21 18:45:00,27.5,11.3,29.96,South,171,8.0,18.0,50,0.00,,SKC,0.00,VWS V14.01,2013-02-21 23:45:00,
2013-02-21 18:46:00,27.5,11.3,29.96,North,357,6.0,12.0,50,0.00,,SKC,0.00,VWS V14.01,2013-02-21 23:46:00,
2013-02-21 18:47:00,27.5,11.8,29.96,North,353,6.0,13.0,51,0.00,,SKC,0.00,VWS V14.01,2013-02-21 23:47:00,
2013-02-21 18:48:00,27.5,11.8,29.96,SSE,157,11.0,13.0,51,0.00,,SKC,0.00,VWS V14.01,2013-02-21 23:48:00,
2013-02-21 18:50:00,27.5,11.8,29.96,NNW,344,8.0,13.0,51,0.00,,SKC,0.00,VWS V14.01,2013-02-21 23:50:00,
2013-02-21 18:51:00,27.5,11.8,29.96,North,353,6.0,19.0,51,0.00,,SKC,0.00,VWS V14.01,2013-02-21 23:51:00,
2013-02-21 18:52:00,27.5,11.8,29.96,NNW,343,6.0,19.0,51,0.00,,SKC,0.00,VWS V14.01,2013-02-21 23:52:00,
2013-02-21 18:53:00,27.5,11.8,29.96,North,350,3.0,19.0,51,0.00,,SKC,0.00,VWS V14.01,2013-02-21 23:53:00,
2013-02-21 18:55:00,27.3,11.6,29.96,North,357,6.0,19.0,51,0.00,,SKC,0.00,VWS V14.01,2013-02-21 23:55:00,
2013-02-21 18:56:00,27.3,11.6,29.96,North,349,7.0,7.0,51,0.00,,SKC,0.00,VWS V14.01,2013-02-21 23:56:00,
2013-02-21 18:57:00,27.3,11.6,29.96,NNW,335,2.0,8.0,51,0.00,,SKC,0.00,VWS V14.01,2013-02-21 23:57:00,
2013-02-21 18:58:00,27.3,11.6,29.96,NNW,339,1.0,19.0,51,0.00,,SKC,0.00,VWS V14.01,2013-02-21 23:58:00,
2013-02-21 18:59:00,27.3,11.6,29.97,NNW,328,0.0,19.0,51,0.00,,SKC,0.00,VWS V14.01,2013-02-21 23:59:00,
2013-02-21 19:00:00,27.3,11.6,29.97,North,354,8.0,19.0,51,0.00,,SKC,0.00,VWS V14.01,2013-02-22 00:00:00,
2013-02-21 19:01:00,27.3,11.6,29.97,NW,322,0.0,12.0,51,0.00,,SKC,0.00,VWS V14.01,2013-02-22 00:01:00,
2013-02-21 19:03:00,27.3,11.6,29.97,NNW,337,7.0,17.0,51,0.00,,SKC,0.00,VWS V14.01,2013-02-22 00:03:00,
2013-02-21 19:04:00,27.3,12.0,29.97,NNW,344,7.0,17.0,52,0.00,,SKC,0.00,VWS V14.01,2013-02-22 00:04:00,
2013-02-21 19:05:00,27.3,12.0,29.97,North,349,6.0,17.0,52,0.00,,SKC,0.00,VWS V14.01,2013-02-22 00:05:00,
2013-02-21 19:06:00,27.2,11.9,29.97,NNW,330,5.0,11.0,52,0.00,,SKC,0.00,VWS V14.01,2013-02-22 00:06:00,
2013-02-21 19:08:00,27.2,11.9,29.97,NNW,337,12.0,12.0,52,0.00,,SKC,0.00,VWS V14.01,2013-02-22 00:08:00,
2013-02-21 19:09:00,27.2,11.9,29.97,NNW,346,5.0,12.0,52,0.00,,SKC,0.00,VWS V14.01,2013-02-22 00:09:00,
2013-02-21 19:10:00,27.2,11.9,29.97,NNW,346,5.0,12.0,52,0.00,,SKC,0.00,VWS V14.01,2013-02-22 00:10:00,
2013-02-21 19:12:00,27.2,11.9,29.97,North,353,0.0,12.0,52,0.00,,SKC,0.00,VWS V14.01,2013-02-22 00:12:00,
2013-02-21 19:13:00,27.2,11.9,29.97,NNW,336,0.0,12.0,52,0.00,,SKC,0.00,VWS V14.01,2013-02-22 00:13:00,
2013-02-21 19:14:00,27.2,12.4,29.98,NNW,336,0.0,12.0,53,0.00,,SKC,0.00,VWS V14.01,2013-02-22 00:14:00,
2013-02-21 19:15:00,27.2,12.4,29.98,NNW,336,0.0,12.0,53,0.00,,SKC,0.00,VWS V14.01,2013-02-22 00:15:00,
2013-02-21 19:17:00,27.2,12.4,29.98,NNW,336,8.0,17.0,53,0.00,,SKC,0.00,VWS V14.01,2013-02-22 00:17:00,
2013-02-21 19:19:00,27.2,11.9,29.98,NNW,347,6.0,17.0,52,0.00,,SKC,0.00,VWS V14.01,2013-02-22 00:19:00,
2013-02-21 19:20:00,27.2,11.9,29.98,North,354,11.0,11.0,52,0.00,,SKC,0.00,VWS V14.01,2013-02-22 00:20:00,
2013-02-21 19:22:00,27.2,11.9,29.98,NNW,346,10.0,11.0,52,0.00,,SKC,0.00,VWS V14.01,2013-02-22 00:22:00,
2013-02-21 19:24:00,27.2,11.9,29.98,NNW,336,7.0,11.0,52,0.00,,SKC,0.00,VWS V14.01,2013-02-22 00:24:00,
2013-02-21 19:25:00,27.2,11.9,29.98,North,357,1.0,1.0,52,0.00,,SKC,0.00,VWS V14.01,2013-02-22 00:25:00,
2013-02-21 19:27:00,27.2,11.9,29.98,SSE,157,1.0,1.0,52,0.00,,SKC,0.00,VWS V14.01,2013-02-22 00:27:00,
2013-02-21 19:29:00,27.2,11.9,29.99,NNW,342,7.0,7.0,52,0.00,,SKC,0.00,VWS V14.01,2013-02-22 00:29:00,
2013-02-21 19:30:00,27.2,11.9,29.99,North,357,11.0,11.0,52,0.00,,SKC,0.00,VWS V14.01,2013-02-22 00:30:00,
2013-02-21 19:32:00,27.2,11.9,29.99,North,352,7.0,11.0,52,0.00,,SKC,0.00,VWS V14.01,2013-02-22 00:32:00,
2013-02-21 19:34:00,27.2,11.9,29.99,NNW,340,5.0,11.0,52,0.00,,SKC,0.00,VWS V14.01,2013-02-22 00:34:00,
2013-02-21 19:35:00,27.2,11.9,29.99,SSE,164,7.0,7.0,52,0.00,,SKC,0.00,VWS V14.01,2013-02-22 00:35:00,
2013-02-21 19:37:00,27.0,11.7,29.99,NNW,343,14.0,14.0,52,0.00,,SKC,0.00,VWS V14.01,2013-02-22 00:37:00,
2013-02-21 19:39:00,27.0,11.7,29.99,NNW,343,14.0,14.0,52,0.00,,SKC,0.00,VWS V14.01,2013-02-22 00:39:00,
2013-02-21 19:40:00,27.0,11.7,29.99,NNW,343,0.0,14.0,52,0.00,,SKC,0.00,VWS V14.01,2013-02-22 00:40:00,
2013-02-21 19:41:00,27.0,11.7,29.99,NNW,343,0.0,14.0,52,0.00,,SKC,0.00,VWS V14.01,2013-02-22 00:41:00,
2013-02-21 19:43:00,26.9,11.6,29.99,South,171,12.0,14.0,52,0.00,,SKC,0.00,VWS V14.01,2013-02-22 00:43:00,
2013-02-21 19:44:00,26.9,11.6,30.00,SSE,154,2.0,21.0,52,0.00,,SKC,0.00,VWS V14.01,2013-02-22 00:44:00,
2013-02-21 19:45:00,26.9,11.6,30.00,SSE,154,2.0,21.0,52,0.00,,SKC,0.00,VWS V14.01,2013-02-22 00:45:00,
2013-02-21 19:46:00,26.9,11.6,30.00,SSE,154,2.0,2.0,52,0.00,,SKC,0.00,VWS V14.01,2013-02-22 00:46:00,
2013-02-21 19:49:00,26.9,11.6,30.00,North,357,11.0,16.0,52,0.00,,SKC,0.00,VWS V14.01,2013-02-22 00:49:00,
2013-02-21 19:50:00,26.9,11.6,30.00,North,354,5.0,11.0,52,0.00,,SKC,0.00,VWS V14.01,2013-02-22 00:50:00,
2013-02-21 19:51:00,26.9,11.6,30.00,NNW,337,7.0,13.0,52,0.00,,SKC,0.00,VWS V14.01,2013-02-22 00:51:00,
2013-02-21 19:54:00,26.9,12.1,30.00,North,352,1.0,13.0,53,0.00,,SKC,0.00,VWS V14.01,2013-02-22 00:54:00,
2013-02-21 19:55:00,26.9,12.1,30.00,SSE,164,7.0,7.0,53,0.00,,SKC,0.00,VWS V14.01,2013-02-22 00:55:00,
2013-02-21 19:56:00,26.9,12.1,30.00,SSE,162,6.0,7.0,53,0.00,,SKC,0.00,VWS V14.01,2013-02-22 00:56:00,
2013-02-21 19:59:00,26.9,12.5,30.00,North,357,7.0,17.0,54,0.00,,SKC,0.00,VWS V14.01,2013-02-22 00:59:00,
2013-02-21 20:00:00,26.9,12.5,30.00,North,350,0.0,7.0,54,0.00,,SKC,0.00,VWS V14.01,2013-02-22 01:00:00,
2013-02-21 20:01:00,26.9,12.5,30.00,NNW,344,2.0,7.0,54,0.00,,SKC,0.00,VWS V14.01,2013-02-22 01:01:00,
2013-02-21 20:02:00,26.9,12.5,30.00,North,357,1.0,8.0,54,0.00,,SKC,0.00,VWS V14.01,2013-02-22 01:02:00,
2013-02-21 20:04:00,26.7,12.3,30.00,NNW,343,10.0,13.0,54,0.00,,SKC,0.00,VWS V14.01,2013-02-22 01:04:00,
2013-02-21 20:05:00,26.7,12.3,30.00,NNW,343,10.0,13.0,54,0.00,,SKC,0.00,VWS V14.01,2013-02-22 01:05:00,
2013-02-21 20:06:00,26.7,12.3,30.00,South,169,10.0,11.0,54,0.00,,SKC,0.00,VWS V14.01,2013-02-22 01:06:00,
2013-02-21 20:07:00,26.7,12.3,30.00,North,350,1.0,11.0,54,0.00,,SKC,0.00,VWS V14.01,2013-02-22 01:07:00,
2013-02-21 20:09:00,26.7,12.3,30.00,NNW,343,17.0,17.0,54,0.00,,SKC,0.00,VWS V14.01,2013-02-22 01:09:00,
2013-02-21 20:10:00,26.7,12.3,30.00,North,352,16.0,16.0,54,0.00,,SKC,0.00,VWS V14.01,2013-02-22 01:10:00,
2013-02-21 20:12:00,26.7,12.7,30.00,North,356,7.0,17.0,55,0.00,,SKC,0.00,VWS V14.01,2013-02-22 01:12:00,
2013-02-21 20:15:00,26.7,12.7,30.01,North,349,0.0,7.0,55,0.00,,SKC,0.00,VWS V14.01,2013-02-22 01:15:00,
2013-02-21 20:17:00,26.7,12.7,30.01,North,359,0.0,13.0,55,0.00,,SKC,0.00,VWS V14.01,2013-02-22 01:17:00,
2013-02-21 20:18:00,26.7,12.7,30.01,NNW,347,2.0,13.0,55,0.00,,SKC,0.00,VWS V14.01,2013-02-22 01:18:00,
2013-02-21 20:20:00,26.6,12.6,30.01,NNW,342,3.0,5.0,55,0.00,,SKC,0.00,VWS V14.01,2013-02-22 01:20:00,
2013-02-21 20:22:00,26.6,12.6,30.01,North,350,0.0,10.0,55,0.00,,SKC,0.00,VWS V14.01,2013-02-22 01:22:00,
2013-02-21 20:23:00,26.6,13.0,30.01,NW,325,14.0,14.0,56,0.00,,SKC,0.00,VWS V14.01,2013-02-22 01:23:00,
2013-02-21 20:25:00,26.6,13.0,30.01,NNW,346,0.0,0.0,56,0.00,,SKC,0.00,VWS V14.01,2013-02-22 01:25:00,
2013-02-21 20:27:00,26.6,13.0,30.01,North,357,6.0,12.0,56,0.00,,SKC,0.00,VWS V14.01,2013-02-22 01:27:00,
2013-02-21 20:28:00,26.6,13.0,30.01,North,357,2.0,12.0,56,0.00,,SKC,0.00,VWS V14.01,2013-02-22 01:28:00,
2013-02-21 20:30:00,26.6,13.0,30.03,NNW,346,6.0,14.0,56,0.00,,SKC,0.00,VWS V14.01,2013-02-22 01:30:00,
2013-02-21 20:33:00,26.6,12.6,30.03,SSE,157,3.0,14.0,55,0.00,,SKC,0.00,VWS V14.01,2013-02-22 01:33:00,
2013-02-21 20:35:00,26.6,12.6,30.03,NNW,346,0.0,10.0,55,0.00,,SKC,0.00,VWS V14.01,2013-02-22 01:35:00,
2013-02-21 20:38:00,26.6,12.6,30.03,North,352,11.0,12.0,55,0.00,,SKC,0.00,VWS V14.01,2013-02-22 01:38:00,
2013-02-21 20:40:00,26.6,13.0,30.03,North,350,0.0,5.0,56,0.00,,SKC,0.00,VWS V14.01,2013-02-22 01:40:00,
2013-02-21 20:43:00,26.4,12.8,30.03,NNW,336,1.0,11.0,56,0.00,,SKC,0.00,VWS V14.01,2013-02-22 01:43:00,
2013-02-21 20:44:00,26.4,12.8,30.03,SSE,157,12.0,12.0,56,0.00,,SKC,0.00,VWS V14.01,2013-02-22 01:44:00,
2013-02-21 20:45:00,26.4,12.8,30.03,NNW,344,12.0,13.0,56,0.00,,SKC,0.00,VWS V14.01,2013-02-22 01:45:00,
2013-02-21 20:46:00,26.6,13.0,30.03,SSE,155,13.0,13.0,56,0.00,,SKC,0.00,VWS V14.01,2013-02-22 01:46:00,
2013-02-21 20:48:00,26.6,13.0,30.03,North,356,9.0,13.0,56,0.00,,SKC,0.00,VWS V14.01,2013-02-22 01:48:00,
2013-02-21 20:49:00,26.6,13.0,30.03,SSE,161,0.0,13.0,56,0.00,,SKC,0.00,VWS V14.01,2013-02-22 01:49:00,
2013-02-21 20:50:00,26.6,13.0,30.03,North,350,0.0,1.0,56,0.00,,SKC,0.00,VWS V14.01,2013-02-22 01:50:00,
2013-02-21 20:52:00,26.6,13.4,30.03,North,356,2.0,2.0,57,0.00,,SKC,0.00,VWS V14.01,2013-02-22 01:52:00,
2013-02-21 20:54:00,26.4,13.2,30.03,NNW,343,0.0,5.0,57,0.00,,SKC,0.00,VWS V14.01,2013-02-22 01:54:00,
2013-02-21 20:55:00,26.4,12.8,30.03,North,357,6.0,11.0,56,0.00,,SKC,0.00,VWS V14.01,2013-02-22 01:55:00,
2013-02-21 20:58:00,26.4,12.8,30.03,NNW,336,2.0,11.0,56,0.00,,SKC,0.00,VWS V14.01,2013-02-22 01:58:00,
2013-02-21 20:59:00,26.4,12.8,30.04,North,356,0.0,11.0,56,0.00,,SKC,0.00,VWS V14.01,2013-02-22 01:59:00,
2013-02-21 21:00:00,26.4,12.8,30.04,North,356,0.0,11.0,56,0.00,,SKC,0.00,VWS V14.01,2013-02-22 02:00:00,
2013-02-21 21:01:00,26.3,12.8,30.04,SSE,157,5.0,10.0,56,0.00,,SKC,0.00,VWS V14.01,2013-02-22 02:01:00,
2013-02-21 21:03:00,26.3,12.8,30.04,SSE,148,10.0,11.0,56,0.00,,SKC,0.00,VWS V14.01,2013-02-22 02:03:00,
2013-02-21 21:04:00,26.4,12.8,30.04,SSE,161,8.0,11.0,56,0.00,,SKC,0.00,VWS V14.01,2013-02-22 02:04:00,
2013-02-21 21:05:00,26.4,12.8,30.04,SSE,161,8.0,11.0,56,0.00,,SKC,0.00,VWS V14.01,2013-02-22 02:05:00,
2013-02-21 21:06:00,26.4,13.6,30.04,NNW,335,0.0,8.0,58,0.00,,SKC,0.00,VWS V14.01,2013-02-22 02:06:00,
2013-02-21 21:08:00,26.3,13.6,30.04,NNW,342,2.0,8.0,58,0.00,,SKC,0.00,VWS V14.01,2013-02-22 02:08:00,
2013-02-21 21:09:00,26.3,13.6,30.04,NNW,342,2.0,8.0,58,0.00,,SKC,0.00,VWS V14.01,2013-02-22 02:09:00,
2013-02-21 21:10:00,26.3,13.6,30.04,NNW,342,2.0,8.0,58,0.00,,SKC,0.00,VWS V14.01,2013-02-22 02:10:00,
2013-02-21 21:11:00,26.3,13.6,30.04,NNW,342,2.0,2.0,58,0.00,,SKC,0.00,VWS V14.01,2013-02-22 02:11:00,
2013-02-21 21:14:00,26.3,13.6,30.05,North,352,2.0,7.0,58,0.00,,SKC,0.00,VWS V14.01,2013-02-22 02:14:00,
2013-02-21 21:15:00,26.3,13.6,30.05,North,350,5.0,7.0,58,0.00,,SKC,0.00,VWS V14.01,2013-02-22 02:15:00,
2013-02-21 21:16:00,26.3,13.6,30.05,NNW,329,5.0,5.0,58,0.00,,SKC,0.00,VWS V14.01,2013-02-22 02:16:00,
2013-02-21 21:17:00,26.3,13.6,30.05,North,349,0.0,5.0,58,0.00,,SKC,0.00,VWS V14.01,2013-02-22 02:17:00,
2013-02-21 21:19:00,26.3,13.6,30.05,North,357,0.0,5.0,58,0.00,,SKC,0.00,VWS V14.01,2013-02-22 02:19:00,
2013-02-21 21:20:00,26.3,13.6,30.05,NNW,344,2.0,6.0,58,0.00,,SKC,0.00,VWS V14.01,2013-02-22 02:20:00,
2013-02-21 21:21:00,26.3,13.6,30.05,North,352,8.0,8.0,58,0.00,,SKC,0.00,VWS V14.01,2013-02-22 02:21:00,
2013-02-21 21:22:00,26.3,13.6,30.05,North,352,8.0,8.0,58,0.00,,SKC,0.00,VWS V14.01,2013-02-22 02:22:00,
2013-02-21 21:24:00,26.3,13.6,30.05,North,357,7.0,7.0,58,0.00,,SKC,0.00,VWS V14.01,2013-02-22 02:24:00,
2013-02-21 21:25:00,26.3,13.6,30.05,NNW,347,10.0,10.0,58,0.00,,SKC,0.00,VWS V14.01,2013-02-22 02:25:00,
2013-02-21 21:26:00,26.3,13.6,30.05,NW,325,5.0,10.0,58,0.00,,SKC,0.00,VWS V14.01,2013-02-22 02:26:00,
2013-02-21 21:27:00,26.3,13.6,30.05,North,350,3.0,10.0,58,0.00,,SKC,0.00,VWS V14.01,2013-02-22 02:27:00,
2013-02-21 21:29:00,26.3,13.6,30.06,NNW,336,0.0,0.0,58,0.00,,SKC,0.00,VWS V14.01,2013-02-22 02:29:00,
2013-02-21 21:30:00,26.3,13.6,30.06,NNW,336,0.0,0.0,58,0.00,,SKC,0.00,VWS V14.01,2013-02-22 02:30:00,
2013-02-21 21:31:00,26.3,13.6,30.06,NNW,344,0.0,0.0,58,0.00,,SKC,0.00,VWS V14.01,2013-02-22 02:31:00,
2013-02-21 21:32:00,26.3,13.6,30.06,NNW,344,0.0,0.0,58,0.00,,SKC,0.00,VWS V14.01,2013-02-22 02:32:00,
2013-02-21 21:35:00,26.3,13.6,30.06,North,357,3.0,3.0,58,0.00,,SKC,0.00,VWS V14.01,2013-02-22 02:35:00,
2013-02-21 21:36:00,26.3,13.6,30.06,NNW,337,3.0,7.0,58,0.00,,SKC,0.00,VWS V14.01,2013-02-22 02:36:00,
2013-02-21 21:37:00,26.3,13.6,30.06,NNW,344,5.0,7.0,58,0.00,,SKC,0.00,VWS V14.01,2013-02-22 02:37:00,
2013-02-21 21:40:00,26.3,13.6,30.06,NNW,333,0.0,0.0,58,0.00,,SKC,0.00,VWS V14.01,2013-02-22 02:40:00,
2013-02-21 21:41:00,26.3,13.6,30.06,North,359,7.0,7.0,58,0.00,,SKC,0.00,VWS V14.01,2013-02-22 02:41:00,
2013-02-21 21:42:00,26.3,13.6,30.06,NNW,343,7.0,7.0,58,0.00,,SKC,0.00,VWS V14.01,2013-02-22 02:42:00,
2013-02-21 21:45:00,26.3,13.6,30.06,South,171,8.0,8.0,58,0.00,,SKC,0.00,VWS V14.01,2013-02-22 02:45:00,
2013-02-21 21:47:00,26.3,13.6,30.06,SSW,195,2.0,8.0,58,0.00,,SKC,0.00,VWS V14.01,2013-02-22 02:47:00,
2013-02-21 21:50:00,26.3,13.6,30.06,NNW,343,0.0,5.0,58,0.00,,SKC,0.00,VWS V14.01,2013-02-22 02:50:00,
2013-02-21 21:52:00,26.1,13.4,30.06,North,352,0.0,5.0,58,0.00,,SKC,0.00,VWS V14.01,2013-02-22 02:52:00,
2013-02-21 21:53:00,26.1,13.4,30.06,SSE,158,7.0,7.0,58,0.00,,SKC,0.00,VWS V14.01,2013-02-22 02:53:00,
2013-02-21 21:55:00,26.1,13.4,30.06,North,357,0.0,7.0,58,0.00,,SKC,0.00,VWS V14.01,2013-02-22 02:55:00,
2013-02-21 21:56:00,26.1,13.4,30.06,North,353,0.0,13.0,58,0.00,,SKC,0.00,VWS V14.01,2013-02-22 02:56:00,
2013-02-21 21:57:00,26.1,13.4,30.06,NNW,344,10.0,13.0,58,0.00,,SKC,0.00,VWS V14.01,2013-02-22 02:57:00,
2013-02-21 21:58:00,26.1,13.4,30.06,SSE,157,6.0,13.0,58,0.00,,SKC,0.00,VWS V14.01,2013-02-22 02:58:00,
2013-02-21 22:00:00,26.1,13.4,30.07,SSE,157,6.0,13.0,58,0.00,,SKC,0.00,VWS V14.01,2013-02-22 03:00:00,
2013-02-21 22:01:00,26.1,13.4,30.07,North,357,0.0,6.0,58,0.00,,SKC,0.00,VWS V14.01,2013-02-22 03:01:00,
2013-02-21 22:02:00,26.1,14.1,30.07,North,349,0.0,6.0,60,0.00,,SKC,0.00,VWS V14.01,2013-02-22 03:02:00,
2013-02-21 22:03:00,26.1,14.1,30.07,NNW,346,3.0,6.0,60,0.00,,SKC,0.00,VWS V14.01,2013-02-22 03:03:00,
2013-02-21 22:05:00,26.1,14.1,30.07,NNW,346,3.0,6.0,60,0.00,,SKC,0.00,VWS V14.01,2013-02-22 03:05:00,
2013-02-21 22:06:00,26.1,14.1,30.07,NNW,339,0.0,6.0,60,0.00,,SKC,0.00,VWS V14.01,2013-02-22 03:06:00,
2013-02-21 22:07:00,26.1,14.1,30.07,NNW,346,0.0,6.0,60,0.00,,SKC,0.00,VWS V14.01,2013-02-22 03:07:00,
2013-02-21 22:09:00,26.1,14.1,30.07,SSE,158,0.0,6.0,60,0.00,,SKC,0.00,VWS V14.01,2013-02-22 03:09:00,
2013-02-21 22:10:00,26.1,14.1,30.07,SSE,158,0.0,6.0,60,0.00,,SKC,0.00,VWS V14.01,2013-02-22 03:10:00,
2013-02-21 22:12:00,26.1,14.1,30.07,SSE,167,0.0,0.0,60,0.00,,SKC,0.00,VWS V14.01,2013-02-22 03:12:00,
2013-02-21 22:14:00,26.0,14.0,30.07,NNW,344,0.0,3.0,60,0.00,,SKC,0.00,VWS V14.01,2013-02-22 03:14:00,
2013-02-21 22:15:00,26.0,14.0,30.07,NNW,344,0.0,0.0,60,0.00,,SKC,0.00,VWS V14.01,2013-02-22 03:15:00,
2013-02-21 22:17:00,26.0,14.0,30.07,NNW,344,0.0,0.0,60,0.00,,SKC,0.00,VWS V14.01,2013-02-22 03:17:00,
2013-02-21 22:19:00,26.0,14.0,30.07,NNW,342,8.0,8.0,60,0.00,,SKC,0.00,VWS V14.01,2013-02-22 03:19:00,
2013-02-21 22:20:00,26.0,14.0,30.07,NNW,342,8.0,8.0,60,0.00,,SKC,0.00,VWS V14.01,2013-02-22 03:20:00,
2013-02-21 22:23:00,26.0,14.0,30.07,SSE,165,0.0,8.0,60,0.00,,SKC,0.00,VWS V14.01,2013-02-22 03:23:00,
2013-02-21 22:24:00,26.0,14.0,30.07,South,179,0.0,8.0,60,0.00,,SKC,0.00,VWS V14.01,2013-02-22 03:24:00,
2013-02-21 22:25:00,26.0,14.0,30.07,South,181,0.0,0.0,60,0.00,,SKC,0.00,VWS V14.01,2013-02-22 03:25:00,
2013-02-21 22:28:00,26.0,14.0,30.07,North,357,6.0,6.0,60,0.00,,SKC,0.00,VWS V14.01,2013-02-22 03:28:00,
2013-02-21 22:29:00,26.0,14.0,30.09,North,357,2.0,8.0,60,0.00,,SKC,0.00,VWS V14.01,2013-02-22 03:29:00,
2013-02-21 22:30:00,26.0,14.0,30.09,North,357,2.0,2.0,60,0.00,,SKC,0.00,VWS V14.01,2013-02-22 03:30:00,
2013-02-21 22:33:00,26.0,14.0,30.09,North,354,0.0,2.0,60,0.00,,SKC,0.00,VWS V14.01,2013-02-22 03:33:00,
2013-02-21 22:34:00,26.0,14.0,30.09,North,359,0.0,0.0,60,0.00,,SKC,0.00,VWS V14.01,2013-02-22 03:34:00,
2013-02-21 22:35:00,26.0,14.0,30.09,North,359,0.0,0.0,60,0.00,,SKC,0.00,VWS V14.01,2013-02-22 03:35:00,
2013-02-21 22:38:00,26.0,14.4,30.09,South,175,0.0,0.0,61,0.00,,SKC,0.00,VWS V14.01,2013-02-22 03:38:00,
2013-02-21 22:40:00,25.8,14.2,30.09,NNW,336,6.0,6.0,61,0.00,,SKC,0.00,VWS V14.01,2013-02-22 03:40:00,
2013-02-21 22:43:00,25.8,14.2,30.09,North,357,1.0,6.0,61,0.00,,SKC,0.00,VWS V14.01,2013-02-22 03:43:00,
2013-02-21 22:45:00,25.8,14.2,30.09,NNW,346,0.0,1.0,61,0.00,,SKC,0.00,VWS V14.01,2013-02-22 03:45:00,
2013-02-21 22:46:00,25.8,14.2,30.09,South,175,3.0,3.0,61,0.00,,SKC,0.00,VWS V14.01,2013-02-22 03:46:00,
2013-02-21 22:48:00,25.8,14.2,30.09,NNW,332,0.0,6.0,61,0.00,,SKC,0.00,VWS V14.01,2013-02-22 03:48:00,
2013-02-21 22:49:00,25.8,14.2,30.09,North,357,5.0,6.0,61,0.00,,SKC,0.00,VWS V14.01,2013-02-22 03:49:00,
2013-02-21 22:50:00,25.8,14.2,30.09,South,169,0.0,6.0,61,0.00,,SKC,0.00,VWS V14.01,2013-02-22 03:50:00,
2013-02-21 22:51:00,25.8,14.2,30.09,NNW,342,0.0,3.0,61,0.00,,SKC,0.00,VWS V14.01,2013-02-22 03:51:00,
2013-02-21 22:53:00,25.8,14.2,30.09,NNW,332,0.0,3.0,61,0.00,,SKC,0.00,VWS V14.01,2013-02-22 03:53:00,
2013-02-21 22:54:00,25.8,14.2,30.09,NNW,332,0.0,3.0,61,0.00,,SKC,0.00,VWS V14.01,2013-02-22 03:54:00,
2013-02-21 22:55:00,25.8,14.2,30.09,NNW,336,0.0,3.0,61,0.00,,SKC,0.00,VWS V14.01,2013-02-22 03:55:00,
2013-02-21 22:56:00,25.8,14.2,30.09,NNW,335,0.0,0.0,61,0.00,,SKC,0.00,VWS V14.01,2013-02-22 03:56:00,
2013-02-21 22:58:00,25.8,14.2,30.11,NNW,335,1.0,1.0,61,0.00,,SKC,0.00,VWS V14.01,2013-02-22 03:58:00,
2013-02-21 22:59:00,25.8,14.2,30.11,NNW,347,0.0,1.0,61,0.00,,SKC,0.00,VWS V14.01,2013-02-22 03:59:00,
2013-02-21 23:00:00,25.8,14.2,30.11,NNW,347,0.0,1.0,61,0.00,,SKC,0.00,VWS V14.01,2013-02-22 04:00:00,
2013-02-21 23:01:00,26.0,14.4,30.11,North,350,0.0,0.0,61,0.00,,SKC,0.00,VWS V14.01,2013-02-22 04:01:00,
2013-02-21 23:02:00,26.0,14.4,30.11,NNW,340,0.0,0.0,61,0.00,,SKC,0.00,VWS V14.01,2013-02-22 04:02:00,
2013-02-21 23:04:00,26.0,14.4,30.11,NW,315,0.0,0.0,61,0.00,,SKC,0.00,VWS V14.01,2013-02-22 04:04:00,
2013-02-21 23:05:00,26.0,14.4,30.11,NW,315,0.0,0.0,61,0.00,,SKC,0.00,VWS V14.01,2013-02-22 04:05:00,
2013-02-21 23:06:00,26.0,14.4,30.11,North,353,2.0,2.0,61,0.00,,SKC,0.00,VWS V14.01,2013-02-22 04:06:00,
2013-02-21 23:07:00,26.0,14.4,30.11,North,349,0.0,2.0,61,0.00,,SKC,0.00,VWS V14.01,2013-02-22 04:07:00,
2013-02-21 23:09:00,26.0,14.4,30.11,North,349,6.0,6.0,61,0.00,,SKC,0.00,VWS V14.01,2013-02-22 04:09:00,
2013-02-21 23:10:00,26.0,14.4,30.11,North,349,6.0,6.0,61,0.00,,SKC,0.00,VWS V14.01,2013-02-22 04:10:00,
2013-02-21 23:12:00,26.0,14.4,30.11,North,357,6.0,6.0,61,0.00,,SKC,0.00,VWS V14.01,2013-02-22 04:12:00,
2013-02-21 23:13:00,26.0,14.4,30.11,North,350,0.0,6.0,61,0.00,,SKC,0.00,VWS V14.01,2013-02-22 04:13:00,
2013-02-21 23:14:00,26.0,14.4,30.11,NNW,335,0.0,0.0,61,0.00,,SKC,0.00,VWS V14.01,2013-02-22 04:14:00,
2013-02-21 23:15:00,26.0,14.4,30.11,NNW,335,0.0,6.0,61,0.00,,SKC,0.00,VWS V14.01,2013-02-22 04:15:00,
2013-02-21 23:17:00,26.1,14.5,30.11,NNW,335,0.0,4.0,61,0.00,,SKC,0.00,VWS V14.01,2013-02-22 04:17:00,
2013-02-21 23:19:00,26.1,14.5,30.11,SSE,158,2.0,4.0,61,0.00,,SKC,0.00,VWS V14.01,2013-02-22 04:19:00,
2013-02-21 23:20:00,26.1,14.5,30.11,South,169,0.0,2.0,61,0.00,,SKC,0.00,VWS V14.01,2013-02-22 04:20:00,
2013-02-21 23:22:00,26.0,14.8,30.11,North,350,0.0,3.0,62,0.00,,SKC,0.00,VWS V14.01,2013-02-22 04:22:00,
2013-02-21 23:24:00,26.0,14.4,30.11,NNW,344,0.0,3.0,61,0.00,,SKC,0.00,VWS V14.01,2013-02-22 04:24:00,
2013-02-21 23:25:00,26.0,14.4,30.11,NNW,344,0.0,0.0,61,0.00,,SKC,0.00,VWS V14.01,2013-02-22 04:25:00,
2013-02-21 23:27:00,26.0,14.4,30.11,SSE,158,0.0,5.0,61,0.00,,SKC,0.00,VWS V14.01,2013-02-22 04:27:00,
2013-02-21 23:29:00,26.0,14.4,30.12,SSE,154,0.0,0.0,61,0.00,,SKC,0.00,VWS V14.01,2013-02-22 04:29:00,
2013-02-21 23:30:00,26.0,14.8,30.12,SSE,155,0.0,0.0,62,0.00,,SKC,0.00,VWS V14.01,2013-02-22 04:30:00,
2013-02-21 23:32:00,26.0,14.8,30.12,NNW,342,0.0,0.0,62,0.00,,SKC,0.00,VWS V14.01,2013-02-22 04:32:00,
2013-02-21 23:35:00,26.0,14.8,30.12,NNW,342,0.0,0.0,62,0.00,,SKC,0.00,VWS V14.01,2013-02-22 04:35:00,
2013-02-21 23:38:00,26.0,14.8,30.12,South,174,0.0,2.0,62,0.00,,SKC,0.00,VWS V14.01,2013-02-22 04:38:00,
2013-02-21 23:40:00,26.0,14.8,30.12,North,350,0.0,0.0,62,0.00,,SKC,0.00,VWS V14.01,2013-02-22 04:40:00,
2013-02-21 23:43:00,26.0,14.8,30.12,North,353,3.0,3.0,62,0.00,,SKC,0.00,VWS V14.01,2013-02-22 04:43:00,
2013-02-21 23:45:00,26.0,14.8,30.14,North,350,0.0,3.0,62,0.00,,SKC,0.00,VWS V14.01,2013-02-22 04:45:00,
2013-02-21 23:48:00,26.0,14.8,30.14,NNW,347,0.0,3.0,62,0.00,,SKC,0.00,VWS V14.01,2013-02-22 04:48:00,
2013-02-21 23:50:00,26.0,14.8,30.14,NNW,347,0.0,0.0,62,0.00,,SKC,0.00,VWS V14.01,2013-02-22 04:50:00,
2013-02-21 23:51:00,26.0,14.8,30.14,NNW,347,0.0,0.0,62,0.00,,SKC,0.00,VWS V14.01,2013-02-22 04:51:00,
2013-02-21 23:53:00,26.0,14.8,30.14,North,350,0.0,0.0,62,0.00,,SKC,0.00,VWS V14.01,2013-02-22 04:53:00,
2013-02-21 23:55:00,26.0,14.8,30.14,North,349,5.0,6.0,62,0.00,,SKC,0.00,VWS V14.01,2013-02-22 04:55:00,
2013-02-21 23:56:00,26.0,14.8,30.14,North,359,5.0,6.0,62,0.00,,SKC,0.00,VWS V14.01,2013-02-22 04:56:00,
2013-02-21 23:57:00,26.0,14.8,30.14,North,359,5.0,6.0,62,0.00,,SKC,0.00,VWS V14.01,2013-02-22 04:57:00,
2013-02-21 23:59:00,26.0,14.8,30.16,North,359,5.0,6.0,62,0.00,,SKC,0.00,VWS V14.01,2013-02-22 04:59:00,